<?xml version="1.0" encoding="UTF-8" standalone="no" ?>
<gpx xmlns="http://www.topografix.com/GPX/1/1" xmlns:xsi="http://www.w3.org/2001/XMLSchema-instance" xsi:schemaLocation="http://www.topografix.com/GPX/1/1 http://www.topografix.com/GPX/1/1/gpx.xsd" version="1.1" creator="VisuGPX - https://www.visugpx.com">
  <metadata>
    <name>Jura_100_folie_Migno</name>
  </metadata>
  <trk>
    <name><![CDATA[15308171-Jura_100_folie]]></name>
    <extensions>
      <line xmlns="http://www.topografix.com/GPX/gpx_style/0/2">
        <color>0000FF</color>
        <width>4</width>
      </line>
    </extensions>
    <trkseg>
      <trkpt lat="46.87743" lon="6.27266">
        <ele>833</ele>
        <time>2022-08-10T07:10:02Z</time>
      </trkpt>
      <trkpt lat="46.87709" lon="6.27313">
        <ele>835</ele>
        <time>2022-08-10T07:10:13Z</time>
      </trkpt>
      <trkpt lat="46.87677" lon="6.27384">
        <ele>836</ele>
        <time>2022-08-10T07:10:27Z</time>
      </trkpt>
      <trkpt lat="46.8764" lon="6.27457">
        <ele>834</ele>
        <time>2022-08-10T07:10:41Z</time>
      </trkpt>
      <trkpt lat="46.87651" lon="6.27519">
        <ele>834</ele>
        <time>2022-08-10T07:10:51Z</time>
      </trkpt>
      <trkpt lat="46.87668" lon="6.2756">
        <ele>834</ele>
        <time>2022-08-10T07:10:59Z</time>
      </trkpt>
      <trkpt lat="46.87652" lon="6.27639">
        <ele>837</ele>
        <time>2022-08-10T07:11:12Z</time>
      </trkpt>
      <trkpt lat="46.87615" lon="6.27796">
        <ele>841</ele>
        <time>2022-08-10T07:11:39Z</time>
      </trkpt>
      <trkpt lat="46.87605" lon="6.27942">
        <ele>849</ele>
        <time>2022-08-10T07:12:02Z</time>
      </trkpt>
      <trkpt lat="46.87624" lon="6.28015">
        <ele>852</ele>
        <time>2022-08-10T07:12:14Z</time>
      </trkpt>
      <trkpt lat="46.8762" lon="6.28103">
        <ele>859</ele>
        <time>2022-08-10T07:12:29Z</time>
      </trkpt>
      <trkpt lat="46.87648" lon="6.28193">
        <ele>860</ele>
        <time>2022-08-10T07:12:44Z</time>
      </trkpt>
      <trkpt lat="46.87659" lon="6.283">
        <ele>866</ele>
        <time>2022-08-10T07:13:02Z</time>
      </trkpt>
      <trkpt lat="46.87615" lon="6.28424">
        <ele>878</ele>
        <time>2022-08-10T07:13:24Z</time>
      </trkpt>
      <trkpt lat="46.87572" lon="6.28628">
        <ele>898</ele>
        <time>2022-08-10T07:13:58Z</time>
      </trkpt>
      <trkpt lat="46.87566" lon="6.28708">
        <ele>902</ele>
        <time>2022-08-10T07:14:11Z</time>
      </trkpt>
      <trkpt lat="46.87556" lon="6.2876">
        <ele>902</ele>
        <time>2022-08-10T07:14:19Z</time>
      </trkpt>
      <trkpt lat="46.8756" lon="6.28815">
        <ele>900</ele>
        <time>2022-08-10T07:14:28Z</time>
      </trkpt>
      <trkpt lat="46.87501" lon="6.28908">
        <ele>903</ele>
        <time>2022-08-10T07:14:49Z</time>
      </trkpt>
      <trkpt lat="46.87454" lon="6.28922">
        <ele>904</ele>
        <time>2022-08-10T07:15:00Z</time>
      </trkpt>
      <trkpt lat="46.87408" lon="6.28978">
        <ele>907</ele>
        <time>2022-08-10T07:15:14Z</time>
      </trkpt>
      <trkpt lat="46.874" lon="6.29021">
        <ele>908</ele>
        <time>2022-08-10T07:15:21Z</time>
      </trkpt>
      <trkpt lat="46.87404" lon="6.29101">
        <ele>905</ele>
        <time>2022-08-10T07:15:34Z</time>
      </trkpt>
      <trkpt lat="46.87428" lon="6.29238">
        <ele>902</ele>
        <time>2022-08-10T07:15:56Z</time>
      </trkpt>
      <trkpt lat="46.87452" lon="6.29317">
        <ele>903</ele>
        <time>2022-08-10T07:16:10Z</time>
      </trkpt>
      <trkpt lat="46.87469" lon="6.29349">
        <ele>903</ele>
        <time>2022-08-10T07:16:16Z</time>
      </trkpt>
      <trkpt lat="46.87483" lon="6.29424">
        <ele>905</ele>
        <time>2022-08-10T07:16:29Z</time>
      </trkpt>
      <trkpt lat="46.87532" lon="6.2948">
        <ele>900</ele>
        <time>2022-08-10T07:16:43Z</time>
      </trkpt>
      <trkpt lat="46.87562" lon="6.29531">
        <ele>897</ele>
        <time>2022-08-10T07:16:54Z</time>
      </trkpt>
      <trkpt lat="46.87578" lon="6.29587">
        <ele>896</ele>
        <time>2022-08-10T07:17:04Z</time>
      </trkpt>
      <trkpt lat="46.87599" lon="6.29629">
        <ele>893</ele>
        <time>2022-08-10T07:17:12Z</time>
      </trkpt>
      <trkpt lat="46.87625" lon="6.29646">
        <ele>887</ele>
        <time>2022-08-10T07:17:19Z</time>
      </trkpt>
      <trkpt lat="46.87639" lon="6.29778">
        <ele>891</ele>
        <time>2022-08-10T07:17:40Z</time>
      </trkpt>
      <trkpt lat="46.87654" lon="6.29954">
        <ele>895</ele>
        <time>2022-08-10T07:18:08Z</time>
      </trkpt>
      <trkpt lat="46.8769" lon="6.30141">
        <ele>876</ele>
        <time>2022-08-10T07:18:39Z</time>
      </trkpt>
      <trkpt lat="46.8769" lon="6.30437">
        <ele>866</ele>
        <time>2022-08-10T07:19:27Z</time>
      </trkpt>
      <trkpt lat="46.87639" lon="6.30489">
        <ele>873</ele>
        <time>2022-08-10T07:19:41Z</time>
      </trkpt>
      <trkpt lat="46.87596" lon="6.30514">
        <ele>879</ele>
        <time>2022-08-10T07:19:52Z</time>
      </trkpt>
      <trkpt lat="46.8756" lon="6.30567">
        <ele>884</ele>
        <time>2022-08-10T07:20:04Z</time>
      </trkpt>
      <trkpt lat="46.87532" lon="6.30579">
        <ele>889</ele>
        <time>2022-08-10T07:20:11Z</time>
      </trkpt>
      <trkpt lat="46.87504" lon="6.30572">
        <ele>893</ele>
        <time>2022-08-10T07:20:17Z</time>
      </trkpt>
      <trkpt lat="46.87477" lon="6.30529">
        <ele>896</ele>
        <time>2022-08-10T07:20:27Z</time>
      </trkpt>
      <trkpt lat="46.87477" lon="6.3048">
        <ele>896</ele>
        <time>2022-08-10T07:20:35Z</time>
      </trkpt>
      <trkpt lat="46.87457" lon="6.30478">
        <ele>899</ele>
        <time>2022-08-10T07:20:39Z</time>
      </trkpt>
      <trkpt lat="46.87425" lon="6.30467">
        <ele>902</ele>
        <time>2022-08-10T07:20:47Z</time>
      </trkpt>
      <trkpt lat="46.87413" lon="6.30448">
        <ele>903</ele>
        <time>2022-08-10T07:20:51Z</time>
      </trkpt>
      <trkpt lat="46.87446" lon="6.30358">
        <ele>905</ele>
        <time>2022-08-10T07:21:07Z</time>
      </trkpt>
      <trkpt lat="46.87439" lon="6.30298">
        <ele>911</ele>
        <time>2022-08-10T07:21:17Z</time>
      </trkpt>
      <trkpt lat="46.87405" lon="6.30265">
        <ele>917</ele>
        <time>2022-08-10T07:21:27Z</time>
      </trkpt>
      <trkpt lat="46.87352" lon="6.30236">
        <ele>923</ele>
        <time>2022-08-10T07:21:40Z</time>
      </trkpt>
      <trkpt lat="46.87313" lon="6.30224">
        <ele>927</ele>
        <time>2022-08-10T07:21:49Z</time>
      </trkpt>
      <trkpt lat="46.87264" lon="6.30286">
        <ele>930</ele>
        <time>2022-08-10T07:22:04Z</time>
      </trkpt>
      <trkpt lat="46.87206" lon="6.30408">
        <ele>936</ele>
        <time>2022-08-10T07:22:28Z</time>
      </trkpt>
      <trkpt lat="46.87174" lon="6.30486">
        <ele>939</ele>
        <time>2022-08-10T07:22:42Z</time>
      </trkpt>
      <trkpt lat="46.8713" lon="6.30547">
        <ele>946</ele>
        <time>2022-08-10T07:22:57Z</time>
      </trkpt>
      <trkpt lat="46.87098" lon="6.30674">
        <ele>948</ele>
        <time>2022-08-10T07:23:18Z</time>
      </trkpt>
      <trkpt lat="46.87068" lon="6.30772">
        <ele>955</ele>
        <time>2022-08-10T07:23:35Z</time>
      </trkpt>
      <trkpt lat="46.8704" lon="6.30808">
        <ele>960</ele>
        <time>2022-08-10T07:23:44Z</time>
      </trkpt>
      <trkpt lat="46.86998" lon="6.30834">
        <ele>963</ele>
        <time>2022-08-10T07:23:55Z</time>
      </trkpt>
      <trkpt lat="46.8699" lon="6.309">
        <ele>967</ele>
        <time>2022-08-10T07:24:05Z</time>
      </trkpt>
      <trkpt lat="46.8704" lon="6.31021">
        <ele>967</ele>
        <time>2022-08-10T07:24:28Z</time>
      </trkpt>
      <trkpt lat="46.87066" lon="6.31076">
        <ele>965</ele>
        <time>2022-08-10T07:24:39Z</time>
      </trkpt>
      <trkpt lat="46.87102" lon="6.31113">
        <ele>961</ele>
        <time>2022-08-10T07:24:49Z</time>
      </trkpt>
      <trkpt lat="46.8714" lon="6.31196">
        <ele>962</ele>
        <time>2022-08-10T07:25:05Z</time>
      </trkpt>
      <trkpt lat="46.87272" lon="6.31373">
        <ele>960</ele>
        <time>2022-08-10T07:25:47Z</time>
      </trkpt>
      <trkpt lat="46.87325" lon="6.31463">
        <ele>958</ele>
        <time>2022-08-10T07:26:06Z</time>
      </trkpt>
      <trkpt lat="46.87366" lon="6.31553">
        <ele>955</ele>
        <time>2022-08-10T07:26:23Z</time>
      </trkpt>
      <trkpt lat="46.87348" lon="6.31635">
        <ele>955</ele>
        <time>2022-08-10T07:26:37Z</time>
      </trkpt>
      <trkpt lat="46.87314" lon="6.31713">
        <ele>960</ele>
        <time>2022-08-10T07:26:51Z</time>
      </trkpt>
      <trkpt lat="46.8731" lon="6.31766">
        <ele>965</ele>
        <time>2022-08-10T07:27:00Z</time>
      </trkpt>
      <trkpt lat="46.8734" lon="6.31901">
        <ele>973</ele>
        <time>2022-08-10T07:27:23Z</time>
      </trkpt>
      <trkpt lat="46.87388" lon="6.32038">
        <ele>974</ele>
        <time>2022-08-10T07:27:47Z</time>
      </trkpt>
      <trkpt lat="46.87386" lon="6.32089">
        <ele>975</ele>
        <time>2022-08-10T07:27:55Z</time>
      </trkpt>
      <trkpt lat="46.874" lon="6.32124">
        <ele>976</ele>
        <time>2022-08-10T07:28:02Z</time>
      </trkpt>
      <trkpt lat="46.87419" lon="6.3215">
        <ele>976</ele>
        <time>2022-08-10T07:28:08Z</time>
      </trkpt>
      <trkpt lat="46.87419" lon="6.32197">
        <ele>980</ele>
        <time>2022-08-10T07:28:15Z</time>
      </trkpt>
      <trkpt lat="46.87398" lon="6.32244">
        <ele>985</ele>
        <time>2022-08-10T07:28:24Z</time>
      </trkpt>
      <trkpt lat="46.87367" lon="6.32278">
        <ele>987</ele>
        <time>2022-08-10T07:28:33Z</time>
      </trkpt>
      <trkpt lat="46.87329" lon="6.32278">
        <ele>987</ele>
        <time>2022-08-10T07:28:42Z</time>
      </trkpt>
      <trkpt lat="46.87316" lon="6.32295">
        <ele>989</ele>
        <time>2022-08-10T07:28:46Z</time>
      </trkpt>
      <trkpt lat="46.87306" lon="6.32454">
        <ele>996</ele>
        <time>2022-08-10T07:29:12Z</time>
      </trkpt>
      <trkpt lat="46.87286" lon="6.32551">
        <ele>1000</ele>
        <time>2022-08-10T07:29:28Z</time>
      </trkpt>
      <trkpt lat="46.87301" lon="6.32617">
        <ele>1000</ele>
        <time>2022-08-10T07:29:39Z</time>
      </trkpt>
      <trkpt lat="46.8731" lon="6.32703">
        <ele>998</ele>
        <time>2022-08-10T07:29:53Z</time>
      </trkpt>
      <trkpt lat="46.87328" lon="6.32801">
        <ele>998</ele>
        <time>2022-08-10T07:30:09Z</time>
      </trkpt>
      <trkpt lat="46.87326" lon="6.3292">
        <ele>1002</ele>
        <time>2022-08-10T07:30:28Z</time>
      </trkpt>
      <trkpt lat="46.87346" lon="6.33095">
        <ele>1006</ele>
        <time>2022-08-10T07:30:57Z</time>
      </trkpt>
      <trkpt lat="46.87346" lon="6.33152">
        <ele>1009</ele>
        <time>2022-08-10T07:31:06Z</time>
      </trkpt>
      <trkpt lat="46.8734" lon="6.33233">
        <ele>1014</ele>
        <time>2022-08-10T07:31:19Z</time>
      </trkpt>
      <trkpt lat="46.87328" lon="6.33322">
        <ele>1016</ele>
        <time>2022-08-10T07:31:33Z</time>
      </trkpt>
      <trkpt lat="46.87309" lon="6.33411">
        <ele>1011</ele>
        <time>2022-08-10T07:31:48Z</time>
      </trkpt>
      <trkpt lat="46.87268" lon="6.33495">
        <ele>1010</ele>
        <time>2022-08-10T07:32:05Z</time>
      </trkpt>
      <trkpt lat="46.87237" lon="6.33551">
        <ele>1007</ele>
        <time>2022-08-10T07:32:16Z</time>
      </trkpt>
      <trkpt lat="46.8721" lon="6.33566">
        <ele>1009</ele>
        <time>2022-08-10T07:32:23Z</time>
      </trkpt>
      <trkpt lat="46.87114" lon="6.33553">
        <ele>1017</ele>
        <time>2022-08-10T07:32:45Z</time>
      </trkpt>
      <trkpt lat="46.87067" lon="6.33563">
        <ele>1019</ele>
        <time>2022-08-10T07:32:56Z</time>
      </trkpt>
      <trkpt lat="46.86998" lon="6.33521">
        <ele>1019</ele>
        <time>2022-08-10T07:33:14Z</time>
      </trkpt>
      <trkpt lat="46.86968" lon="6.33433">
        <ele>1016</ele>
        <time>2022-08-10T07:33:30Z</time>
      </trkpt>
      <trkpt lat="46.86948" lon="6.33343">
        <ele>1012</ele>
        <time>2022-08-10T07:33:45Z</time>
      </trkpt>
      <trkpt lat="46.86869" lon="6.33272">
        <ele>1002</ele>
        <time>2022-08-10T07:34:06Z</time>
      </trkpt>
      <trkpt lat="46.86694" lon="6.33355">
        <ele>996</ele>
        <time>2022-08-10T07:34:49Z</time>
      </trkpt>
      <trkpt lat="46.86631" lon="6.33366">
        <ele>995</ele>
        <time>2022-08-10T07:35:04Z</time>
      </trkpt>
      <trkpt lat="46.86553" lon="6.33332">
        <ele>995</ele>
        <time>2022-08-10T07:35:23Z</time>
      </trkpt>
      <trkpt lat="46.86527" lon="6.33389">
        <ele>995</ele>
        <time>2022-08-10T07:35:34Z</time>
      </trkpt>
      <trkpt lat="46.86484" lon="6.33408">
        <ele>994</ele>
        <time>2022-08-10T07:35:45Z</time>
      </trkpt>
      <trkpt lat="46.86415" lon="6.33448">
        <ele>998</ele>
        <time>2022-08-10T07:36:02Z</time>
      </trkpt>
      <trkpt lat="46.86371" lon="6.33453">
        <ele>1001</ele>
        <time>2022-08-10T07:36:12Z</time>
      </trkpt>
      <trkpt lat="46.86238" lon="6.33427">
        <ele>1003</ele>
        <time>2022-08-10T07:36:43Z</time>
      </trkpt>
      <trkpt lat="46.86181" lon="6.33434">
        <ele>1001</ele>
        <time>2022-08-10T07:36:57Z</time>
      </trkpt>
      <trkpt lat="46.86093" lon="6.33464">
        <ele>988</ele>
        <time>2022-08-10T07:37:18Z</time>
      </trkpt>
      <trkpt lat="46.85961" lon="6.33212">
        <ele>957</ele>
        <time>2022-08-10T07:38:09Z</time>
      </trkpt>
      <trkpt lat="46.85919" lon="6.3306">
        <ele>954</ele>
        <time>2022-08-10T07:38:35Z</time>
      </trkpt>
      <trkpt lat="46.85894" lon="6.32999">
        <ele>952</ele>
        <time>2022-08-10T07:38:46Z</time>
      </trkpt>
      <trkpt lat="46.85835" lon="6.32921">
        <ele>941</ele>
        <time>2022-08-10T07:39:05Z</time>
      </trkpt>
      <trkpt lat="46.85769" lon="6.32919">
        <ele>928</ele>
        <time>2022-08-10T07:39:20Z</time>
      </trkpt>
      <trkpt lat="46.85732" lon="6.32898">
        <ele>924</ele>
        <time>2022-08-10T07:39:29Z</time>
      </trkpt>
      <trkpt lat="46.85641" lon="6.32728">
        <ele>926</ele>
        <time>2022-08-10T07:40:04Z</time>
      </trkpt>
      <trkpt lat="46.85593" lon="6.32628">
        <ele>922</ele>
        <time>2022-08-10T07:40:23Z</time>
      </trkpt>
      <trkpt lat="46.8555" lon="6.32577">
        <ele>914</ele>
        <time>2022-08-10T07:40:36Z</time>
      </trkpt>
      <trkpt lat="46.85499" lon="6.32491">
        <ele>903</ele>
        <time>2022-08-10T07:40:55Z</time>
      </trkpt>
      <trkpt lat="46.85475" lon="6.32571">
        <ele>896</ele>
        <time>2022-08-10T07:41:08Z</time>
      </trkpt>
      <trkpt lat="46.85418" lon="6.32668">
        <ele>887</ele>
        <time>2022-08-10T07:41:29Z</time>
      </trkpt>
      <trkpt lat="46.85407" lon="6.32707">
        <ele>885</ele>
        <time>2022-08-10T07:41:36Z</time>
      </trkpt>
      <trkpt lat="46.85407" lon="6.32766">
        <ele>884</ele>
        <time>2022-08-10T07:41:45Z</time>
      </trkpt>
      <trkpt lat="46.85418" lon="6.32837">
        <ele>883</ele>
        <time>2022-08-10T07:41:57Z</time>
      </trkpt>
      <trkpt lat="46.8542" lon="6.32883">
        <ele>881</ele>
        <time>2022-08-10T07:42:04Z</time>
      </trkpt>
      <trkpt lat="46.85317" lon="6.32982">
        <ele>870</ele>
        <time>2022-08-10T07:42:33Z</time>
      </trkpt>
      <trkpt lat="46.85271" lon="6.32992">
        <ele>864</ele>
        <time>2022-08-10T07:42:44Z</time>
      </trkpt>
      <trkpt lat="46.85245" lon="6.33017">
        <ele>861</ele>
        <time>2022-08-10T07:42:51Z</time>
      </trkpt>
      <trkpt lat="46.85225" lon="6.33044">
        <ele>861</ele>
        <time>2022-08-10T07:42:57Z</time>
      </trkpt>
      <trkpt lat="46.85183" lon="6.33015">
        <ele>864</ele>
        <time>2022-08-10T07:43:08Z</time>
      </trkpt>
      <trkpt lat="46.85138" lon="6.32995">
        <ele>866</ele>
        <time>2022-08-10T07:43:19Z</time>
      </trkpt>
      <trkpt lat="46.85109" lon="6.32989">
        <ele>868</ele>
        <time>2022-08-10T07:43:26Z</time>
      </trkpt>
      <trkpt lat="46.85093" lon="6.32975">
        <ele>868</ele>
        <time>2022-08-10T07:43:30Z</time>
      </trkpt>
      <trkpt lat="46.85067" lon="6.32985">
        <ele>870</ele>
        <time>2022-08-10T07:43:37Z</time>
      </trkpt>
      <trkpt lat="46.85053" lon="6.33027">
        <ele>871</ele>
        <time>2022-08-10T07:43:44Z</time>
      </trkpt>
      <trkpt lat="46.85031" lon="6.33073">
        <ele>871</ele>
        <time>2022-08-10T07:43:53Z</time>
      </trkpt>
      <trkpt lat="46.84923" lon="6.32983">
        <ele>874</ele>
        <time>2022-08-10T07:44:22Z</time>
      </trkpt>
      <trkpt lat="46.84905" lon="6.32999">
        <ele>872</ele>
        <time>2022-08-10T07:44:27Z</time>
      </trkpt>
      <trkpt lat="46.84885" lon="6.33004">
        <ele>871</ele>
        <time>2022-08-10T07:44:32Z</time>
      </trkpt>
      <trkpt lat="46.84863" lon="6.32995">
        <ele>870</ele>
        <time>2022-08-10T07:44:37Z</time>
      </trkpt>
      <trkpt lat="46.84827" lon="6.32968">
        <ele>871</ele>
        <time>2022-08-10T07:44:47Z</time>
      </trkpt>
      <trkpt lat="46.84798" lon="6.32941">
        <ele>873</ele>
        <time>2022-08-10T07:44:55Z</time>
      </trkpt>
      <trkpt lat="46.84773" lon="6.32922">
        <ele>875</ele>
        <time>2022-08-10T07:45:01Z</time>
      </trkpt>
      <trkpt lat="46.84689" lon="6.32876">
        <ele>879</ele>
        <time>2022-08-10T07:45:22Z</time>
      </trkpt>
      <trkpt lat="46.84653" lon="6.32866">
        <ele>881</ele>
        <time>2022-08-10T07:45:31Z</time>
      </trkpt>
      <trkpt lat="46.84624" lon="6.32873">
        <ele>881</ele>
        <time>2022-08-10T07:45:38Z</time>
      </trkpt>
      <trkpt lat="46.84547" lon="6.32921">
        <ele>881</ele>
        <time>2022-08-10T07:45:57Z</time>
      </trkpt>
      <trkpt lat="46.84478" lon="6.32925">
        <ele>887</ele>
        <time>2022-08-10T07:46:13Z</time>
      </trkpt>
      <trkpt lat="46.84434" lon="6.32916">
        <ele>894</ele>
        <time>2022-08-10T07:46:24Z</time>
      </trkpt>
      <trkpt lat="46.84385" lon="6.32899">
        <ele>902</ele>
        <time>2022-08-10T07:46:35Z</time>
      </trkpt>
      <trkpt lat="46.8431" lon="6.32861">
        <ele>911</ele>
        <time>2022-08-10T07:46:54Z</time>
      </trkpt>
      <trkpt lat="46.84249" lon="6.32802">
        <ele>913</ele>
        <time>2022-08-10T07:47:11Z</time>
      </trkpt>
      <trkpt lat="46.84207" lon="6.32766">
        <ele>917</ele>
        <time>2022-08-10T07:47:22Z</time>
      </trkpt>
      <trkpt lat="46.84191" lon="6.32764">
        <ele>917</ele>
        <time>2022-08-10T07:47:26Z</time>
      </trkpt>
      <trkpt lat="46.84138" lon="6.32801">
        <ele>912</ele>
        <time>2022-08-10T07:47:40Z</time>
      </trkpt>
      <trkpt lat="46.84113" lon="6.32822">
        <ele>909</ele>
        <time>2022-08-10T07:47:47Z</time>
      </trkpt>
      <trkpt lat="46.84082" lon="6.32821">
        <ele>908</ele>
        <time>2022-08-10T07:47:54Z</time>
      </trkpt>
      <trkpt lat="46.84062" lon="6.32804">
        <ele>910</ele>
        <time>2022-08-10T07:47:59Z</time>
      </trkpt>
      <trkpt lat="46.83885" lon="6.32546">
        <ele>918</ele>
        <time>2022-08-10T07:48:58Z</time>
      </trkpt>
      <trkpt lat="46.83773" lon="6.32263">
        <ele>906</ele>
        <time>2022-08-10T07:49:50Z</time>
      </trkpt>
      <trkpt lat="46.83748" lon="6.3223">
        <ele>903</ele>
        <time>2022-08-10T07:49:58Z</time>
      </trkpt>
      <trkpt lat="46.83721" lon="6.32225">
        <ele>901</ele>
        <time>2022-08-10T07:50:04Z</time>
      </trkpt>
      <trkpt lat="46.83702" lon="6.32198">
        <ele>902</ele>
        <time>2022-08-10T07:50:10Z</time>
      </trkpt>
      <trkpt lat="46.83674" lon="6.32134">
        <ele>904</ele>
        <time>2022-08-10T07:50:22Z</time>
      </trkpt>
      <trkpt lat="46.83637" lon="6.32074">
        <ele>906</ele>
        <time>2022-08-10T07:50:35Z</time>
      </trkpt>
      <trkpt lat="46.83596" lon="6.32034">
        <ele>905</ele>
        <time>2022-08-10T07:50:47Z</time>
      </trkpt>
      <trkpt lat="46.83506" lon="6.31905">
        <ele>906</ele>
        <time>2022-08-10T07:51:16Z</time>
      </trkpt>
      <trkpt lat="46.83473" lon="6.31827">
        <ele>904</ele>
        <time>2022-08-10T07:51:31Z</time>
      </trkpt>
      <trkpt lat="46.83447" lon="6.31817">
        <ele>900</ele>
        <time>2022-08-10T07:51:37Z</time>
      </trkpt>
      <trkpt lat="46.8343" lon="6.31784">
        <ele>901</ele>
        <time>2022-08-10T07:51:44Z</time>
      </trkpt>
      <trkpt lat="46.83396" lon="6.31753">
        <ele>900</ele>
        <time>2022-08-10T07:51:53Z</time>
      </trkpt>
      <trkpt lat="46.83348" lon="6.31685">
        <ele>902</ele>
        <time>2022-08-10T07:52:09Z</time>
      </trkpt>
      <trkpt lat="46.83306" lon="6.31646">
        <ele>902</ele>
        <time>2022-08-10T07:52:20Z</time>
      </trkpt>
      <trkpt lat="46.83253" lon="6.31578">
        <ele>904</ele>
        <time>2022-08-10T07:52:37Z</time>
      </trkpt>
      <trkpt lat="46.83179" lon="6.31492">
        <ele>906</ele>
        <time>2022-08-10T07:52:59Z</time>
      </trkpt>
      <trkpt lat="46.8313" lon="6.3143">
        <ele>907</ele>
        <time>2022-08-10T07:53:14Z</time>
      </trkpt>
      <trkpt lat="46.82974" lon="6.31279">
        <ele>901</ele>
        <time>2022-08-10T07:53:58Z</time>
      </trkpt>
      <trkpt lat="46.82938" lon="6.31188">
        <ele>904</ele>
        <time>2022-08-10T07:54:14Z</time>
      </trkpt>
      <trkpt lat="46.82943" lon="6.31137">
        <ele>908</ele>
        <time>2022-08-10T07:54:23Z</time>
      </trkpt>
      <trkpt lat="46.82933" lon="6.31097">
        <ele>911</ele>
        <time>2022-08-10T07:54:29Z</time>
      </trkpt>
      <trkpt lat="46.82878" lon="6.31064">
        <ele>909</ele>
        <time>2022-08-10T07:54:43Z</time>
      </trkpt>
      <trkpt lat="46.82852" lon="6.31038">
        <ele>909</ele>
        <time>2022-08-10T07:54:51Z</time>
      </trkpt>
      <trkpt lat="46.82836" lon="6.31005">
        <ele>912</ele>
        <time>2022-08-10T07:54:57Z</time>
      </trkpt>
      <trkpt lat="46.82799" lon="6.30973">
        <ele>908</ele>
        <time>2022-08-10T07:55:07Z</time>
      </trkpt>
      <trkpt lat="46.82756" lon="6.30902">
        <ele>907</ele>
        <time>2022-08-10T07:55:22Z</time>
      </trkpt>
      <trkpt lat="46.82753" lon="6.30875">
        <ele>907</ele>
        <time>2022-08-10T07:55:27Z</time>
      </trkpt>
      <trkpt lat="46.8276" lon="6.30845">
        <ele>909</ele>
        <time>2022-08-10T07:55:32Z</time>
      </trkpt>
      <trkpt lat="46.82737" lon="6.30816">
        <ele>910</ele>
        <time>2022-08-10T07:55:39Z</time>
      </trkpt>
      <trkpt lat="46.82758" lon="6.30794">
        <ele>916</ele>
        <time>2022-08-10T07:55:45Z</time>
      </trkpt>
      <trkpt lat="46.82693" lon="6.30712">
        <ele>920</ele>
        <time>2022-08-10T07:56:05Z</time>
      </trkpt>
      <trkpt lat="46.82635" lon="6.3061">
        <ele>918</ele>
        <time>2022-08-10T07:56:26Z</time>
      </trkpt>
      <trkpt lat="46.82607" lon="6.30514">
        <ele>920</ele>
        <time>2022-08-10T07:56:43Z</time>
      </trkpt>
      <trkpt lat="46.82539" lon="6.30472">
        <ele>920</ele>
        <time>2022-08-10T07:57:00Z</time>
      </trkpt>
      <trkpt lat="46.8248" lon="6.30406">
        <ele>927</ele>
        <time>2022-08-10T07:57:17Z</time>
      </trkpt>
      <trkpt lat="46.8243" lon="6.30377">
        <ele>926</ele>
        <time>2022-08-10T07:57:30Z</time>
      </trkpt>
      <trkpt lat="46.82359" lon="6.30341">
        <ele>926</ele>
        <time>2022-08-10T07:57:48Z</time>
      </trkpt>
      <trkpt lat="46.82204" lon="6.30213">
        <ele>923</ele>
        <time>2022-08-10T07:58:29Z</time>
      </trkpt>
      <trkpt lat="46.82119" lon="6.3016">
        <ele>926</ele>
        <time>2022-08-10T07:58:51Z</time>
      </trkpt>
      <trkpt lat="46.8204" lon="6.30097">
        <ele>926</ele>
        <time>2022-08-10T07:59:12Z</time>
      </trkpt>
      <trkpt lat="46.81875" lon="6.29953">
        <ele>922</ele>
        <time>2022-08-10T07:59:57Z</time>
      </trkpt>
      <trkpt lat="46.81787" lon="6.29888">
        <ele>915</ele>
        <time>2022-08-10T08:00:20Z</time>
      </trkpt>
      <trkpt lat="46.81667" lon="6.29782">
        <ele>906</ele>
        <time>2022-08-10T08:00:52Z</time>
      </trkpt>
      <trkpt lat="46.81508" lon="6.2963">
        <ele>892</ele>
        <time>2022-08-10T08:01:37Z</time>
      </trkpt>
      <trkpt lat="46.81479" lon="6.29622">
        <ele>893</ele>
        <time>2022-08-10T08:01:44Z</time>
      </trkpt>
      <trkpt lat="46.81471" lon="6.2959">
        <ele>894</ele>
        <time>2022-08-10T08:01:49Z</time>
      </trkpt>
      <trkpt lat="46.8145" lon="6.29564">
        <ele>896</ele>
        <time>2022-08-10T08:01:56Z</time>
      </trkpt>
      <trkpt lat="46.81387" lon="6.29556">
        <ele>895</ele>
        <time>2022-08-10T08:02:10Z</time>
      </trkpt>
      <trkpt lat="46.81341" lon="6.29592">
        <ele>891</ele>
        <time>2022-08-10T08:02:22Z</time>
      </trkpt>
      <trkpt lat="46.81304" lon="6.29536">
        <ele>893</ele>
        <time>2022-08-10T08:02:35Z</time>
      </trkpt>
      <trkpt lat="46.81268" lon="6.29538">
        <ele>891</ele>
        <time>2022-08-10T08:02:43Z</time>
      </trkpt>
      <trkpt lat="46.81231" lon="6.29581">
        <ele>888</ele>
        <time>2022-08-10T08:02:54Z</time>
      </trkpt>
      <trkpt lat="46.81191" lon="6.29547">
        <ele>889</ele>
        <time>2022-08-10T08:03:05Z</time>
      </trkpt>
      <trkpt lat="46.81147" lon="6.29497">
        <ele>892</ele>
        <time>2022-08-10T08:03:18Z</time>
      </trkpt>
      <trkpt lat="46.81112" lon="6.29512">
        <ele>890</ele>
        <time>2022-08-10T08:03:27Z</time>
      </trkpt>
      <trkpt lat="46.81155" lon="6.29564">
        <ele>887</ele>
        <time>2022-08-10T08:03:40Z</time>
      </trkpt>
      <trkpt lat="46.81157" lon="6.29611">
        <ele>885</ele>
        <time>2022-08-10T08:03:47Z</time>
      </trkpt>
      <trkpt lat="46.81088" lon="6.29583">
        <ele>886</ele>
        <time>2022-08-10T08:04:04Z</time>
      </trkpt>
      <trkpt lat="46.80999" lon="6.29465">
        <ele>884</ele>
        <time>2022-08-10T08:04:32Z</time>
      </trkpt>
      <trkpt lat="46.80959" lon="6.29371">
        <ele>887</ele>
        <time>2022-08-10T08:04:50Z</time>
      </trkpt>
      <trkpt lat="46.80623" lon="6.29154">
        <ele>887</ele>
        <time>2022-08-10T08:06:16Z</time>
      </trkpt>
      <trkpt lat="46.80617" lon="6.29133">
        <ele>889</ele>
        <time>2022-08-10T08:06:19Z</time>
      </trkpt>
      <trkpt lat="46.80591" lon="6.29094">
        <ele>892</ele>
        <time>2022-08-10T08:06:28Z</time>
      </trkpt>
      <trkpt lat="46.80535" lon="6.29081">
        <ele>886</ele>
        <time>2022-08-10T08:06:41Z</time>
      </trkpt>
      <trkpt lat="46.80163" lon="6.28714">
        <ele>876</ele>
        <time>2022-08-10T08:08:26Z</time>
      </trkpt>
      <trkpt lat="46.80094" lon="6.28774">
        <ele>873</ele>
        <time>2022-08-10T08:08:45Z</time>
      </trkpt>
      <trkpt lat="46.80066" lon="6.28774">
        <ele>872</ele>
        <time>2022-08-10T08:08:51Z</time>
      </trkpt>
      <trkpt lat="46.79968" lon="6.28723">
        <ele>873</ele>
        <time>2022-08-10T08:09:16Z</time>
      </trkpt>
      <trkpt lat="46.79853" lon="6.2868">
        <ele>875</ele>
        <time>2022-08-10T08:09:43Z</time>
      </trkpt>
      <trkpt lat="46.79758" lon="6.28635">
        <ele>882</ele>
        <time>2022-08-10T08:10:07Z</time>
      </trkpt>
      <trkpt lat="46.79632" lon="6.2855">
        <ele>887</ele>
        <time>2022-08-10T08:10:39Z</time>
      </trkpt>
      <trkpt lat="46.79534" lon="6.28459">
        <ele>895</ele>
        <time>2022-08-10T08:11:06Z</time>
      </trkpt>
      <trkpt lat="46.79495" lon="6.28435">
        <ele>898</ele>
        <time>2022-08-10T08:11:16Z</time>
      </trkpt>
      <trkpt lat="46.79366" lon="6.28261">
        <ele>898</ele>
        <time>2022-08-10T08:11:57Z</time>
      </trkpt>
      <trkpt lat="46.79288" lon="6.2813">
        <ele>900</ele>
        <time>2022-08-10T08:12:25Z</time>
      </trkpt>
      <trkpt lat="46.7912" lon="6.2794">
        <ele>889</ele>
        <time>2022-08-10T08:13:14Z</time>
      </trkpt>
      <trkpt lat="46.79069" lon="6.27789">
        <ele>878</ele>
        <time>2022-08-10T08:13:41Z</time>
      </trkpt>
      <trkpt lat="46.79009" lon="6.2783">
        <ele>874</ele>
        <time>2022-08-10T08:13:57Z</time>
      </trkpt>
      <trkpt lat="46.78959" lon="6.27798">
        <ele>868</ele>
        <time>2022-08-10T08:14:10Z</time>
      </trkpt>
      <trkpt lat="46.78859" lon="6.27761">
        <ele>856</ele>
        <time>2022-08-10T08:14:34Z</time>
      </trkpt>
      <trkpt lat="46.78801" lon="6.27757">
        <ele>852</ele>
        <time>2022-08-10T08:14:47Z</time>
      </trkpt>
      <trkpt lat="46.78832" lon="6.27669">
        <ele>853</ele>
        <time>2022-08-10T08:15:03Z</time>
      </trkpt>
      <trkpt lat="46.78834" lon="6.27581">
        <ele>852</ele>
        <time>2022-08-10T08:15:17Z</time>
      </trkpt>
      <trkpt lat="46.78825" lon="6.27513">
        <ele>854</ele>
        <time>2022-08-10T08:15:28Z</time>
      </trkpt>
      <trkpt lat="46.78823" lon="6.27474">
        <ele>855</ele>
        <time>2022-08-10T08:15:34Z</time>
      </trkpt>
      <trkpt lat="46.78853" lon="6.27405">
        <ele>857</ele>
        <time>2022-08-10T08:15:47Z</time>
      </trkpt>
      <trkpt lat="46.78859" lon="6.27345">
        <ele>860</ele>
        <time>2022-08-10T08:15:57Z</time>
      </trkpt>
      <trkpt lat="46.78973" lon="6.27272">
        <ele>860</ele>
        <time>2022-08-10T08:16:26Z</time>
      </trkpt>
      <trkpt lat="46.79004" lon="6.27231">
        <ele>860</ele>
        <time>2022-08-10T08:16:36Z</time>
      </trkpt>
      <trkpt lat="46.79016" lon="6.27208">
        <ele>861</ele>
        <time>2022-08-10T08:16:41Z</time>
      </trkpt>
      <trkpt lat="46.79003" lon="6.27141">
        <ele>863</ele>
        <time>2022-08-10T08:16:52Z</time>
      </trkpt>
      <trkpt lat="46.79017" lon="6.27111">
        <ele>865</ele>
        <time>2022-08-10T08:16:58Z</time>
      </trkpt>
      <trkpt lat="46.79044" lon="6.27085">
        <ele>864</ele>
        <time>2022-08-10T08:17:05Z</time>
      </trkpt>
      <trkpt lat="46.79056" lon="6.27019">
        <ele>866</ele>
        <time>2022-08-10T08:17:16Z</time>
      </trkpt>
      <trkpt lat="46.79017" lon="6.26961">
        <ele>877</ele>
        <time>2022-08-10T08:17:29Z</time>
      </trkpt>
      <trkpt lat="46.78995" lon="6.26933">
        <ele>883</ele>
        <time>2022-08-10T08:17:36Z</time>
      </trkpt>
      <trkpt lat="46.78935" lon="6.26779">
        <ele>895</ele>
        <time>2022-08-10T08:18:04Z</time>
      </trkpt>
      <trkpt lat="46.78848" lon="6.26593">
        <ele>913</ele>
        <time>2022-08-10T08:18:40Z</time>
      </trkpt>
      <trkpt lat="46.78722" lon="6.2621">
        <ele>924</ele>
        <time>2022-08-10T08:19:48Z</time>
      </trkpt>
      <trkpt lat="46.7864" lon="6.25935">
        <ele>927</ele>
        <time>2022-08-10T08:20:36Z</time>
      </trkpt>
      <trkpt lat="46.786" lon="6.2585">
        <ele>928</ele>
        <time>2022-08-10T08:20:53Z</time>
      </trkpt>
      <trkpt lat="46.78446" lon="6.25616">
        <ele>934</ele>
        <time>2022-08-10T08:21:44Z</time>
      </trkpt>
      <trkpt lat="46.78247" lon="6.2538">
        <ele>946</ele>
        <time>2022-08-10T08:22:44Z</time>
      </trkpt>
      <trkpt lat="46.78143" lon="6.25317">
        <ele>950</ele>
        <time>2022-08-10T08:23:11Z</time>
      </trkpt>
      <trkpt lat="46.78034" lon="6.25268">
        <ele>952</ele>
        <time>2022-08-10T08:23:37Z</time>
      </trkpt>
      <trkpt lat="46.77961" lon="6.25285">
        <ele>954</ele>
        <time>2022-08-10T08:23:55Z</time>
      </trkpt>
      <trkpt lat="46.77867" lon="6.2532">
        <ele>957</ele>
        <time>2022-08-10T08:24:17Z</time>
      </trkpt>
      <trkpt lat="46.77776" lon="6.25313">
        <ele>958</ele>
        <time>2022-08-10T08:24:38Z</time>
      </trkpt>
      <trkpt lat="46.77711" lon="6.25193">
        <ele>953</ele>
        <time>2022-08-10T08:25:03Z</time>
      </trkpt>
      <trkpt lat="46.77611" lon="6.25086">
        <ele>950</ele>
        <time>2022-08-10T08:25:32Z</time>
      </trkpt>
      <trkpt lat="46.77557" lon="6.25019">
        <ele>946</ele>
        <time>2022-08-10T08:25:48Z</time>
      </trkpt>
      <trkpt lat="46.77539" lon="6.24916">
        <ele>945</ele>
        <time>2022-08-10T08:26:05Z</time>
      </trkpt>
      <trkpt lat="46.77501" lon="6.24762">
        <ele>930</ele>
        <time>2022-08-10T08:26:32Z</time>
      </trkpt>
      <trkpt lat="46.77286" lon="6.24356">
        <ele>912</ele>
        <time>2022-08-10T08:27:54Z</time>
      </trkpt>
      <trkpt lat="46.7727" lon="6.243">
        <ele>914</ele>
        <time>2022-08-10T08:28:03Z</time>
      </trkpt>
      <trkpt lat="46.77176" lon="6.24193">
        <ele>911</ele>
        <time>2022-08-10T08:28:31Z</time>
      </trkpt>
      <trkpt lat="46.77126" lon="6.24131">
        <ele>910</ele>
        <time>2022-08-10T08:28:47Z</time>
      </trkpt>
      <trkpt lat="46.77013" lon="6.24114">
        <ele>907</ele>
        <time>2022-08-10T08:29:13Z</time>
      </trkpt>
      <trkpt lat="46.76976" lon="6.24081">
        <ele>907</ele>
        <time>2022-08-10T08:29:23Z</time>
      </trkpt>
      <trkpt lat="46.76957" lon="6.24045">
        <ele>907</ele>
        <time>2022-08-10T08:29:30Z</time>
      </trkpt>
      <trkpt lat="46.76895" lon="6.23959">
        <ele>909</ele>
        <time>2022-08-10T08:29:50Z</time>
      </trkpt>
      <trkpt lat="46.76903" lon="6.23918">
        <ele>909</ele>
        <time>2022-08-10T08:29:57Z</time>
      </trkpt>
      <trkpt lat="46.76884" lon="6.23893">
        <ele>910</ele>
        <time>2022-08-10T08:30:03Z</time>
      </trkpt>
      <trkpt lat="46.76851" lon="6.23905">
        <ele>910</ele>
        <time>2022-08-10T08:30:11Z</time>
      </trkpt>
      <trkpt lat="46.76823" lon="6.23957">
        <ele>910</ele>
        <time>2022-08-10T08:30:22Z</time>
      </trkpt>
      <trkpt lat="46.76779" lon="6.23946">
        <ele>911</ele>
        <time>2022-08-10T08:30:32Z</time>
      </trkpt>
      <trkpt lat="46.76663" lon="6.23779">
        <ele>921</ele>
        <time>2022-08-10T08:31:10Z</time>
      </trkpt>
      <trkpt lat="46.76669" lon="6.23753">
        <ele>922</ele>
        <time>2022-08-10T08:31:15Z</time>
      </trkpt>
      <trkpt lat="46.76618" lon="6.23691">
        <ele>926</ele>
        <time>2022-08-10T08:31:30Z</time>
      </trkpt>
      <trkpt lat="46.76588" lon="6.23642">
        <ele>928</ele>
        <time>2022-08-10T08:31:41Z</time>
      </trkpt>
      <trkpt lat="46.76544" lon="6.23521">
        <ele>930</ele>
        <time>2022-08-10T08:32:03Z</time>
      </trkpt>
      <trkpt lat="46.76419" lon="6.23298">
        <ele>933</ele>
        <time>2022-08-10T08:32:49Z</time>
      </trkpt>
      <trkpt lat="46.76334" lon="6.23033">
        <ele>932</ele>
        <time>2022-08-10T08:33:35Z</time>
      </trkpt>
      <trkpt lat="46.76307" lon="6.22884">
        <ele>929</ele>
        <time>2022-08-10T08:34:00Z</time>
      </trkpt>
      <trkpt lat="46.76221" lon="6.22618">
        <ele>927</ele>
        <time>2022-08-10T08:34:47Z</time>
      </trkpt>
      <trkpt lat="46.76014" lon="6.2244">
        <ele>931</ele>
        <time>2022-08-10T08:35:43Z</time>
      </trkpt>
      <trkpt lat="46.75936" lon="6.22416">
        <ele>928</ele>
        <time>2022-08-10T08:36:02Z</time>
      </trkpt>
      <trkpt lat="46.75877" lon="6.22369">
        <ele>925</ele>
        <time>2022-08-10T08:36:18Z</time>
      </trkpt>
      <trkpt lat="46.75825" lon="6.2227">
        <ele>929</ele>
        <time>2022-08-10T08:36:38Z</time>
      </trkpt>
      <trkpt lat="46.75747" lon="6.22166">
        <ele>926</ele>
        <time>2022-08-10T08:37:02Z</time>
      </trkpt>
      <trkpt lat="46.75644" lon="6.21975">
        <ele>923</ele>
        <time>2022-08-10T08:37:41Z</time>
      </trkpt>
      <trkpt lat="46.75577" lon="6.21899">
        <ele>921</ele>
        <time>2022-08-10T08:38:01Z</time>
      </trkpt>
      <trkpt lat="46.75526" lon="6.21762">
        <ele>925</ele>
        <time>2022-08-10T08:38:26Z</time>
      </trkpt>
      <trkpt lat="46.75459" lon="6.21609">
        <ele>929</ele>
        <time>2022-08-10T08:38:55Z</time>
      </trkpt>
      <trkpt lat="46.75398" lon="6.2152">
        <ele>931</ele>
        <time>2022-08-10T08:39:15Z</time>
      </trkpt>
      <trkpt lat="46.75314" lon="6.21261">
        <ele>934</ele>
        <time>2022-08-10T08:40:01Z</time>
      </trkpt>
      <trkpt lat="46.75267" lon="6.21064">
        <ele>937</ele>
        <time>2022-08-10T08:40:34Z</time>
      </trkpt>
      <trkpt lat="46.75246" lon="6.20861">
        <ele>942</ele>
        <time>2022-08-10T08:41:07Z</time>
      </trkpt>
      <trkpt lat="46.75068" lon="6.20459">
        <ele>952</ele>
        <time>2022-08-10T08:42:24Z</time>
      </trkpt>
      <trkpt lat="46.7501" lon="6.20305">
        <ele>958</ele>
        <time>2022-08-10T08:42:52Z</time>
      </trkpt>
      <trkpt lat="46.74896" lon="6.20095">
        <ele>965</ele>
        <time>2022-08-10T08:43:35Z</time>
      </trkpt>
      <trkpt lat="46.74856" lon="6.19939">
        <ele>970</ele>
        <time>2022-08-10T08:44:01Z</time>
      </trkpt>
      <trkpt lat="46.74787" lon="6.19725">
        <ele>976</ele>
        <time>2022-08-10T08:44:39Z</time>
      </trkpt>
      <trkpt lat="46.7477" lon="6.19578">
        <ele>982</ele>
        <time>2022-08-10T08:45:03Z</time>
      </trkpt>
      <trkpt lat="46.7474" lon="6.19498">
        <ele>980</ele>
        <time>2022-08-10T08:45:18Z</time>
      </trkpt>
      <trkpt lat="46.7469" lon="6.19444">
        <ele>983</ele>
        <time>2022-08-10T08:45:32Z</time>
      </trkpt>
      <trkpt lat="46.7464" lon="6.19348">
        <ele>989</ele>
        <time>2022-08-10T08:45:51Z</time>
      </trkpt>
      <trkpt lat="46.74581" lon="6.19297">
        <ele>993</ele>
        <time>2022-08-10T08:46:08Z</time>
      </trkpt>
      <trkpt lat="46.7453" lon="6.19183">
        <ele>1006</ele>
        <time>2022-08-10T08:46:29Z</time>
      </trkpt>
      <trkpt lat="46.74451" lon="6.19172">
        <ele>1003</ele>
        <time>2022-08-10T08:46:48Z</time>
      </trkpt>
      <trkpt lat="46.74399" lon="6.19112">
        <ele>1005</ele>
        <time>2022-08-10T08:47:03Z</time>
      </trkpt>
      <trkpt lat="46.74377" lon="6.19032">
        <ele>1009</ele>
        <time>2022-08-10T08:47:17Z</time>
      </trkpt>
      <trkpt lat="46.74324" lon="6.18949">
        <ele>1012</ele>
        <time>2022-08-10T08:47:35Z</time>
      </trkpt>
      <trkpt lat="46.74274" lon="6.18902">
        <ele>1013</ele>
        <time>2022-08-10T08:47:49Z</time>
      </trkpt>
      <trkpt lat="46.74281" lon="6.18901">
        <ele>1014</ele>
        <time>2022-08-10T08:47:51Z</time>
      </trkpt>
      <trkpt lat="46.742" lon="6.18813">
        <ele>1020</ele>
        <time>2022-08-10T08:48:14Z</time>
      </trkpt>
      <trkpt lat="46.74166" lon="6.18817">
        <ele>1014</ele>
        <time>2022-08-10T08:48:22Z</time>
      </trkpt>
      <trkpt lat="46.74091" lon="6.18789">
        <ele>1013</ele>
        <time>2022-08-10T08:48:40Z</time>
      </trkpt>
      <trkpt lat="46.73991" lon="6.18769">
        <ele>1011</ele>
        <time>2022-08-10T08:49:04Z</time>
      </trkpt>
      <trkpt lat="46.73822" lon="6.1876">
        <ele>1018</ele>
        <time>2022-08-10T08:49:43Z</time>
      </trkpt>
      <trkpt lat="46.73698" lon="6.18665">
        <ele>1027</ele>
        <time>2022-08-10T08:50:16Z</time>
      </trkpt>
      <trkpt lat="46.73629" lon="6.18589">
        <ele>1034</ele>
        <time>2022-08-10T08:50:36Z</time>
      </trkpt>
      <trkpt lat="46.73528" lon="6.18358">
        <ele>1036</ele>
        <time>2022-08-10T08:51:20Z</time>
      </trkpt>
      <trkpt lat="46.73447" lon="6.18242">
        <ele>1033</ele>
        <time>2022-08-10T08:51:47Z</time>
      </trkpt>
      <trkpt lat="46.73405" lon="6.18219">
        <ele>1033</ele>
        <time>2022-08-10T08:51:57Z</time>
      </trkpt>
      <trkpt lat="46.73311" lon="6.18209">
        <ele>1033</ele>
        <time>2022-08-10T08:52:19Z</time>
      </trkpt>
      <trkpt lat="46.73272" lon="6.18158">
        <ele>1036</ele>
        <time>2022-08-10T08:52:31Z</time>
      </trkpt>
      <trkpt lat="46.7323" lon="6.18076">
        <ele>1034</ele>
        <time>2022-08-10T08:52:48Z</time>
      </trkpt>
      <trkpt lat="46.73151" lon="6.18005">
        <ele>1030</ele>
        <time>2022-08-10T08:53:10Z</time>
      </trkpt>
      <trkpt lat="46.73088" lon="6.17928">
        <ele>1028</ele>
        <time>2022-08-10T08:53:29Z</time>
      </trkpt>
      <trkpt lat="46.73053" lon="6.17923">
        <ele>1025</ele>
        <time>2022-08-10T08:53:37Z</time>
      </trkpt>
      <trkpt lat="46.7301" lon="6.17903">
        <ele>1023</ele>
        <time>2022-08-10T08:53:47Z</time>
      </trkpt>
      <trkpt lat="46.72926" lon="6.17805">
        <ele>1018</ele>
        <time>2022-08-10T08:54:13Z</time>
      </trkpt>
      <trkpt lat="46.72936" lon="6.17767">
        <ele>1019</ele>
        <time>2022-08-10T08:54:19Z</time>
      </trkpt>
      <trkpt lat="46.72988" lon="6.17702">
        <ele>1016</ele>
        <time>2022-08-10T08:54:35Z</time>
      </trkpt>
      <trkpt lat="46.73" lon="6.17621">
        <ele>1011</ele>
        <time>2022-08-10T08:54:48Z</time>
      </trkpt>
      <trkpt lat="46.73002" lon="6.17539">
        <ele>1010</ele>
        <time>2022-08-10T08:55:01Z</time>
      </trkpt>
      <trkpt lat="46.72976" lon="6.17514">
        <ele>1009</ele>
        <time>2022-08-10T08:55:09Z</time>
      </trkpt>
      <trkpt lat="46.72961" lon="6.17466">
        <ele>1012</ele>
        <time>2022-08-10T08:55:17Z</time>
      </trkpt>
      <trkpt lat="46.73013" lon="6.17346">
        <ele>1037</ele>
        <time>2022-08-10T08:55:40Z</time>
      </trkpt>
      <trkpt lat="46.72997" lon="6.17287">
        <ele>1042</ele>
        <time>2022-08-10T08:55:50Z</time>
      </trkpt>
      <trkpt lat="46.73024" lon="6.17216">
        <ele>1051</ele>
        <time>2022-08-10T08:56:03Z</time>
      </trkpt>
      <trkpt lat="46.72888" lon="6.17049">
        <ele>1064</ele>
        <time>2022-08-10T08:56:45Z</time>
      </trkpt>
      <trkpt lat="46.72929" lon="6.16988">
        <ele>1069</ele>
        <time>2022-08-10T08:56:58Z</time>
      </trkpt>
      <trkpt lat="46.72875" lon="6.16855">
        <ele>1077</ele>
        <time>2022-08-10T08:57:23Z</time>
      </trkpt>
      <trkpt lat="46.72897" lon="6.16785">
        <ele>1084</ele>
        <time>2022-08-10T08:57:35Z</time>
      </trkpt>
      <trkpt lat="46.72867" lon="6.16689">
        <ele>1089</ele>
        <time>2022-08-10T08:57:52Z</time>
      </trkpt>
      <trkpt lat="46.72868" lon="6.16645">
        <ele>1093</ele>
        <time>2022-08-10T08:57:59Z</time>
      </trkpt>
      <trkpt lat="46.72781" lon="6.16564">
        <ele>1085</ele>
        <time>2022-08-10T08:58:23Z</time>
      </trkpt>
      <trkpt lat="46.72689" lon="6.16472">
        <ele>1078</ele>
        <time>2022-08-10T08:58:49Z</time>
      </trkpt>
      <trkpt lat="46.72603" lon="6.16368">
        <ele>1077</ele>
        <time>2022-08-10T08:59:16Z</time>
      </trkpt>
      <trkpt lat="46.72537" lon="6.16314">
        <ele>1074</ele>
        <time>2022-08-10T08:59:33Z</time>
      </trkpt>
      <trkpt lat="46.72454" lon="6.16233">
        <ele>1070</ele>
        <time>2022-08-10T08:59:57Z</time>
      </trkpt>
      <trkpt lat="46.72411" lon="6.16168">
        <ele>1068</ele>
        <time>2022-08-10T09:00:11Z</time>
      </trkpt>
      <trkpt lat="46.72345" lon="6.16183">
        <ele>1062</ele>
        <time>2022-08-10T09:00:27Z</time>
      </trkpt>
      <trkpt lat="46.7228" lon="6.16181">
        <ele>1057</ele>
        <time>2022-08-10T09:00:42Z</time>
      </trkpt>
      <trkpt lat="46.72207" lon="6.1615">
        <ele>1054</ele>
        <time>2022-08-10T09:00:59Z</time>
      </trkpt>
      <trkpt lat="46.72096" lon="6.16037">
        <ele>1050</ele>
        <time>2022-08-10T09:01:31Z</time>
      </trkpt>
      <trkpt lat="46.7206" lon="6.15953">
        <ele>1053</ele>
        <time>2022-08-10T09:01:47Z</time>
      </trkpt>
      <trkpt lat="46.72022" lon="6.15878">
        <ele>1056</ele>
        <time>2022-08-10T09:02:02Z</time>
      </trkpt>
      <trkpt lat="46.71978" lon="6.1578">
        <ele>1063</ele>
        <time>2022-08-10T09:02:21Z</time>
      </trkpt>
      <trkpt lat="46.71956" lon="6.15713">
        <ele>1069</ele>
        <time>2022-08-10T09:02:33Z</time>
      </trkpt>
      <trkpt lat="46.71955" lon="6.15657">
        <ele>1073</ele>
        <time>2022-08-10T09:02:42Z</time>
      </trkpt>
      <trkpt lat="46.71979" lon="6.15629">
        <ele>1074</ele>
        <time>2022-08-10T09:02:49Z</time>
      </trkpt>
      <trkpt lat="46.71991" lon="6.15594">
        <ele>1075</ele>
        <time>2022-08-10T09:02:55Z</time>
      </trkpt>
      <trkpt lat="46.71972" lon="6.1555">
        <ele>1078</ele>
        <time>2022-08-10T09:03:03Z</time>
      </trkpt>
      <trkpt lat="46.71939" lon="6.15545">
        <ele>1078</ele>
        <time>2022-08-10T09:03:11Z</time>
      </trkpt>
      <trkpt lat="46.71911" lon="6.1549">
        <ele>1080</ele>
        <time>2022-08-10T09:03:22Z</time>
      </trkpt>
      <trkpt lat="46.71898" lon="6.15417">
        <ele>1084</ele>
        <time>2022-08-10T09:03:34Z</time>
      </trkpt>
      <trkpt lat="46.71903" lon="6.15392">
        <ele>1086</ele>
        <time>2022-08-10T09:03:38Z</time>
      </trkpt>
      <trkpt lat="46.71897" lon="6.15316">
        <ele>1088</ele>
        <time>2022-08-10T09:03:50Z</time>
      </trkpt>
      <trkpt lat="46.71907" lon="6.1529">
        <ele>1090</ele>
        <time>2022-08-10T09:03:55Z</time>
      </trkpt>
      <trkpt lat="46.7194" lon="6.15244">
        <ele>1095</ele>
        <time>2022-08-10T09:04:06Z</time>
      </trkpt>
      <trkpt lat="46.71949" lon="6.15172">
        <ele>1098</ele>
        <time>2022-08-10T09:04:18Z</time>
      </trkpt>
      <trkpt lat="46.71942" lon="6.15126">
        <ele>1100</ele>
        <time>2022-08-10T09:04:25Z</time>
      </trkpt>
      <trkpt lat="46.71884" lon="6.15033">
        <ele>1102</ele>
        <time>2022-08-10T09:04:45Z</time>
      </trkpt>
      <trkpt lat="46.71861" lon="6.14963">
        <ele>1102</ele>
        <time>2022-08-10T09:04:58Z</time>
      </trkpt>
      <trkpt lat="46.71819" lon="6.1494">
        <ele>1100</ele>
        <time>2022-08-10T09:05:08Z</time>
      </trkpt>
      <trkpt lat="46.71772" lon="6.14931">
        <ele>1097</ele>
        <time>2022-08-10T09:05:19Z</time>
      </trkpt>
      <trkpt lat="46.71671" lon="6.14855">
        <ele>1093</ele>
        <time>2022-08-10T09:05:46Z</time>
      </trkpt>
      <trkpt lat="46.71624" lon="6.14779">
        <ele>1089</ele>
        <time>2022-08-10T09:06:02Z</time>
      </trkpt>
      <trkpt lat="46.71548" lon="6.14705">
        <ele>1079</ele>
        <time>2022-08-10T09:06:24Z</time>
      </trkpt>
      <trkpt lat="46.71461" lon="6.14686">
        <ele>1067</ele>
        <time>2022-08-10T09:06:44Z</time>
      </trkpt>
      <trkpt lat="46.71398" lon="6.14675">
        <ele>1060</ele>
        <time>2022-08-10T09:06:59Z</time>
      </trkpt>
      <trkpt lat="46.71317" lon="6.14555">
        <ele>1059</ele>
        <time>2022-08-10T09:07:26Z</time>
      </trkpt>
      <trkpt lat="46.712" lon="6.14412">
        <ele>1052</ele>
        <time>2022-08-10T09:08:02Z</time>
      </trkpt>
      <trkpt lat="46.71163" lon="6.14419">
        <ele>1048</ele>
        <time>2022-08-10T09:08:10Z</time>
      </trkpt>
      <trkpt lat="46.71109" lon="6.14488">
        <ele>1040</ele>
        <time>2022-08-10T09:08:27Z</time>
      </trkpt>
      <trkpt lat="46.70913" lon="6.14176">
        <ele>1036</ele>
        <time>2022-08-10T09:09:35Z</time>
      </trkpt>
      <trkpt lat="46.70892" lon="6.14129">
        <ele>1039</ele>
        <time>2022-08-10T09:09:44Z</time>
      </trkpt>
      <trkpt lat="46.70828" lon="6.14069">
        <ele>1040</ele>
        <time>2022-08-10T09:10:02Z</time>
      </trkpt>
      <trkpt lat="46.70702" lon="6.13883">
        <ele>1042</ele>
        <time>2022-08-10T09:10:43Z</time>
      </trkpt>
      <trkpt lat="46.70675" lon="6.13796">
        <ele>1043</ele>
        <time>2022-08-10T09:10:59Z</time>
      </trkpt>
      <trkpt lat="46.70651" lon="6.13703">
        <ele>1042</ele>
        <time>2022-08-10T09:11:15Z</time>
      </trkpt>
      <trkpt lat="46.70615" lon="6.13651">
        <ele>1041</ele>
        <time>2022-08-10T09:11:26Z</time>
      </trkpt>
      <trkpt lat="46.70533" lon="6.13642">
        <ele>1038</ele>
        <time>2022-08-10T09:11:46Z</time>
      </trkpt>
      <trkpt lat="46.70459" lon="6.13627">
        <ele>1034</ele>
        <time>2022-08-10T09:12:03Z</time>
      </trkpt>
      <trkpt lat="46.70533" lon="6.13563">
        <ele>1039</ele>
        <time>2022-08-10T09:12:23Z</time>
      </trkpt>
      <trkpt lat="46.70632" lon="6.13456">
        <ele>1046</ele>
        <time>2022-08-10T09:12:52Z</time>
      </trkpt>
      <trkpt lat="46.70731" lon="6.13378">
        <ele>1052</ele>
        <time>2022-08-10T09:13:18Z</time>
      </trkpt>
      <trkpt lat="46.7079" lon="6.133">
        <ele>1059</ele>
        <time>2022-08-10T09:13:37Z</time>
      </trkpt>
      <trkpt lat="46.70802" lon="6.13242">
        <ele>1062</ele>
        <time>2022-08-10T09:13:47Z</time>
      </trkpt>
      <trkpt lat="46.70804" lon="6.13175">
        <ele>1063</ele>
        <time>2022-08-10T09:13:57Z</time>
      </trkpt>
      <trkpt lat="46.70755" lon="6.13107">
        <ele>1068</ele>
        <time>2022-08-10T09:14:13Z</time>
      </trkpt>
      <trkpt lat="46.70763" lon="6.13062">
        <ele>1071</ele>
        <time>2022-08-10T09:14:21Z</time>
      </trkpt>
      <trkpt lat="46.70748" lon="6.12966">
        <ele>1071</ele>
        <time>2022-08-10T09:14:36Z</time>
      </trkpt>
      <trkpt lat="46.70714" lon="6.12883">
        <ele>1068</ele>
        <time>2022-08-10T09:14:52Z</time>
      </trkpt>
      <trkpt lat="46.7064" lon="6.12797">
        <ele>1060</ele>
        <time>2022-08-10T09:15:14Z</time>
      </trkpt>
      <trkpt lat="46.70573" lon="6.12731">
        <ele>1057</ele>
        <time>2022-08-10T09:15:33Z</time>
      </trkpt>
      <trkpt lat="46.70529" lon="6.128">
        <ele>1053</ele>
        <time>2022-08-10T09:15:48Z</time>
      </trkpt>
      <trkpt lat="46.70503" lon="6.12851">
        <ele>1052</ele>
        <time>2022-08-10T09:15:58Z</time>
      </trkpt>
      <trkpt lat="46.70449" lon="6.12782">
        <ele>1047</ele>
        <time>2022-08-10T09:16:15Z</time>
      </trkpt>
      <trkpt lat="46.70407" lon="6.12746">
        <ele>1044</ele>
        <time>2022-08-10T09:16:26Z</time>
      </trkpt>
      <trkpt lat="46.70376" lon="6.12734">
        <ele>1042</ele>
        <time>2022-08-10T09:16:34Z</time>
      </trkpt>
      <trkpt lat="46.70351" lon="6.12739">
        <ele>1041</ele>
        <time>2022-08-10T09:16:40Z</time>
      </trkpt>
      <trkpt lat="46.70308" lon="6.12768">
        <ele>1040</ele>
        <time>2022-08-10T09:16:51Z</time>
      </trkpt>
      <trkpt lat="46.7027" lon="6.12736">
        <ele>1041</ele>
        <time>2022-08-10T09:17:01Z</time>
      </trkpt>
      <trkpt lat="46.70252" lon="6.12715">
        <ele>1042</ele>
        <time>2022-08-10T09:17:06Z</time>
      </trkpt>
      <trkpt lat="46.7021" lon="6.12699">
        <ele>1042</ele>
        <time>2022-08-10T09:17:16Z</time>
      </trkpt>
      <trkpt lat="46.70182" lon="6.12661">
        <ele>1043</ele>
        <time>2022-08-10T09:17:25Z</time>
      </trkpt>
      <trkpt lat="46.7018" lon="6.12629">
        <ele>1045</ele>
        <time>2022-08-10T09:17:30Z</time>
      </trkpt>
      <trkpt lat="46.70153" lon="6.12492">
        <ele>1052</ele>
        <time>2022-08-10T09:17:53Z</time>
      </trkpt>
      <trkpt lat="46.70137" lon="6.12452">
        <ele>1055</ele>
        <time>2022-08-10T09:18:01Z</time>
      </trkpt>
      <trkpt lat="46.701" lon="6.124">
        <ele>1057</ele>
        <time>2022-08-10T09:18:13Z</time>
      </trkpt>
      <trkpt lat="46.70083" lon="6.12331">
        <ele>1058</ele>
        <time>2022-08-10T09:18:24Z</time>
      </trkpt>
      <trkpt lat="46.70107" lon="6.12257">
        <ele>1058</ele>
        <time>2022-08-10T09:18:38Z</time>
      </trkpt>
      <trkpt lat="46.70118" lon="6.12192">
        <ele>1058</ele>
        <time>2022-08-10T09:18:48Z</time>
      </trkpt>
      <trkpt lat="46.70093" lon="6.12154">
        <ele>1057</ele>
        <time>2022-08-10T09:18:57Z</time>
      </trkpt>
      <trkpt lat="46.7004" lon="6.12111">
        <ele>1055</ele>
        <time>2022-08-10T09:19:11Z</time>
      </trkpt>
      <trkpt lat="46.70005" lon="6.12011">
        <ele>1046</ele>
        <time>2022-08-10T09:19:29Z</time>
      </trkpt>
      <trkpt lat="46.70001" lon="6.11929">
        <ele>1042</ele>
        <time>2022-08-10T09:19:42Z</time>
      </trkpt>
      <trkpt lat="46.6997" lon="6.11907">
        <ele>1042</ele>
        <time>2022-08-10T09:19:50Z</time>
      </trkpt>
      <trkpt lat="46.69933" lon="6.11937">
        <ele>1043</ele>
        <time>2022-08-10T09:20:00Z</time>
      </trkpt>
      <trkpt lat="46.69889" lon="6.11918">
        <ele>1043</ele>
        <time>2022-08-10T09:20:11Z</time>
      </trkpt>
      <trkpt lat="46.69857" lon="6.11928">
        <ele>1044</ele>
        <time>2022-08-10T09:20:18Z</time>
      </trkpt>
      <trkpt lat="46.69823" lon="6.11933">
        <ele>1045</ele>
        <time>2022-08-10T09:20:26Z</time>
      </trkpt>
      <trkpt lat="46.69774" lon="6.11856">
        <ele>1049</ele>
        <time>2022-08-10T09:20:43Z</time>
      </trkpt>
      <trkpt lat="46.69746" lon="6.11754">
        <ele>1052</ele>
        <time>2022-08-10T09:21:01Z</time>
      </trkpt>
      <trkpt lat="46.69702" lon="6.11777">
        <ele>1058</ele>
        <time>2022-08-10T09:21:12Z</time>
      </trkpt>
      <trkpt lat="46.69679" lon="6.11785">
        <ele>1060</ele>
        <time>2022-08-10T09:21:17Z</time>
      </trkpt>
      <trkpt lat="46.69652" lon="6.11724">
        <ele>1063</ele>
        <time>2022-08-10T09:21:29Z</time>
      </trkpt>
      <trkpt lat="46.6961" lon="6.11639">
        <ele>1069</ele>
        <time>2022-08-10T09:21:46Z</time>
      </trkpt>
      <trkpt lat="46.69638" lon="6.11612">
        <ele>1067</ele>
        <time>2022-08-10T09:21:53Z</time>
      </trkpt>
      <trkpt lat="46.6964" lon="6.11556">
        <ele>1070</ele>
        <time>2022-08-10T09:22:02Z</time>
      </trkpt>
      <trkpt lat="46.69659" lon="6.11499">
        <ele>1074</ele>
        <time>2022-08-10T09:22:13Z</time>
      </trkpt>
      <trkpt lat="46.69663" lon="6.11447">
        <ele>1075</ele>
        <time>2022-08-10T09:22:21Z</time>
      </trkpt>
      <trkpt lat="46.69697" lon="6.1139">
        <ele>1070</ele>
        <time>2022-08-10T09:22:33Z</time>
      </trkpt>
      <trkpt lat="46.69645" lon="6.11174">
        <ele>1068</ele>
        <time>2022-08-10T09:23:10Z</time>
      </trkpt>
      <trkpt lat="46.69717" lon="6.10904">
        <ele>1071</ele>
        <time>2022-08-10T09:23:56Z</time>
      </trkpt>
      <trkpt lat="46.69672" lon="6.10842">
        <ele>1073</ele>
        <time>2022-08-10T09:24:11Z</time>
      </trkpt>
      <trkpt lat="46.69608" lon="6.10808">
        <ele>1071</ele>
        <time>2022-08-10T09:24:26Z</time>
      </trkpt>
      <trkpt lat="46.69589" lon="6.10699">
        <ele>1071</ele>
        <time>2022-08-10T09:24:44Z</time>
      </trkpt>
      <trkpt lat="46.6956" lon="6.10635">
        <ele>1071</ele>
        <time>2022-08-10T09:24:57Z</time>
      </trkpt>
      <trkpt lat="46.69516" lon="6.10667">
        <ele>1068</ele>
        <time>2022-08-10T09:25:08Z</time>
      </trkpt>
      <trkpt lat="46.69475" lon="6.10668">
        <ele>1068</ele>
        <time>2022-08-10T09:25:18Z</time>
      </trkpt>
      <trkpt lat="46.69422" lon="6.10635">
        <ele>1073</ele>
        <time>2022-08-10T09:25:31Z</time>
      </trkpt>
      <trkpt lat="46.6941" lon="6.10585">
        <ele>1075</ele>
        <time>2022-08-10T09:25:40Z</time>
      </trkpt>
      <trkpt lat="46.69412" lon="6.10546">
        <ele>1076</ele>
        <time>2022-08-10T09:25:46Z</time>
      </trkpt>
      <trkpt lat="46.694" lon="6.10535">
        <ele>1076</ele>
        <time>2022-08-10T09:25:49Z</time>
      </trkpt>
      <trkpt lat="46.69371" lon="6.10576">
        <ele>1075</ele>
        <time>2022-08-10T09:25:59Z</time>
      </trkpt>
      <trkpt lat="46.6929" lon="6.10648">
        <ele>1074</ele>
        <time>2022-08-10T09:26:21Z</time>
      </trkpt>
      <trkpt lat="46.69202" lon="6.10734">
        <ele>1082</ele>
        <time>2022-08-10T09:26:46Z</time>
      </trkpt>
      <trkpt lat="46.69153" lon="6.10701">
        <ele>1082</ele>
        <time>2022-08-10T09:26:58Z</time>
      </trkpt>
      <trkpt lat="46.69127" lon="6.10689">
        <ele>1084</ele>
        <time>2022-08-10T09:27:05Z</time>
      </trkpt>
      <trkpt lat="46.69068" lon="6.10613">
        <ele>1081</ele>
        <time>2022-08-10T09:27:23Z</time>
      </trkpt>
      <trkpt lat="46.69028" lon="6.10597">
        <ele>1081</ele>
        <time>2022-08-10T09:27:33Z</time>
      </trkpt>
      <trkpt lat="46.6899" lon="6.10614">
        <ele>1085</ele>
        <time>2022-08-10T09:27:42Z</time>
      </trkpt>
      <trkpt lat="46.69016" lon="6.1057">
        <ele>1080</ele>
        <time>2022-08-10T09:27:51Z</time>
      </trkpt>
      <trkpt lat="46.69009" lon="6.10511">
        <ele>1074</ele>
        <time>2022-08-10T09:28:01Z</time>
      </trkpt>
      <trkpt lat="46.69034" lon="6.10441">
        <ele>1070</ele>
        <time>2022-08-10T09:28:14Z</time>
      </trkpt>
      <trkpt lat="46.69046" lon="6.10337">
        <ele>1069</ele>
        <time>2022-08-10T09:28:30Z</time>
      </trkpt>
      <trkpt lat="46.69047" lon="6.10164">
        <ele>1072</ele>
        <time>2022-08-10T09:28:58Z</time>
      </trkpt>
      <trkpt lat="46.69053" lon="6.09987">
        <ele>1082</ele>
        <time>2022-08-10T09:29:27Z</time>
      </trkpt>
      <trkpt lat="46.6909" lon="6.09892">
        <ele>1089</ele>
        <time>2022-08-10T09:29:44Z</time>
      </trkpt>
      <trkpt lat="46.6916" lon="6.09743">
        <ele>1101</ele>
        <time>2022-08-10T09:30:13Z</time>
      </trkpt>
      <trkpt lat="46.69193" lon="6.09712">
        <ele>1104</ele>
        <time>2022-08-10T09:30:22Z</time>
      </trkpt>
      <trkpt lat="46.69241" lon="6.09696">
        <ele>1107</ele>
        <time>2022-08-10T09:30:34Z</time>
      </trkpt>
      <trkpt lat="46.69289" lon="6.0966">
        <ele>1108</ele>
        <time>2022-08-10T09:30:46Z</time>
      </trkpt>
      <trkpt lat="46.69311" lon="6.09603">
        <ele>1112</ele>
        <time>2022-08-10T09:30:57Z</time>
      </trkpt>
      <trkpt lat="46.69308" lon="6.09547">
        <ele>1113</ele>
        <time>2022-08-10T09:31:06Z</time>
      </trkpt>
      <trkpt lat="46.69274" lon="6.09495">
        <ele>1116</ele>
        <time>2022-08-10T09:31:17Z</time>
      </trkpt>
      <trkpt lat="46.69275" lon="6.09459">
        <ele>1117</ele>
        <time>2022-08-10T09:31:23Z</time>
      </trkpt>
      <trkpt lat="46.69226" lon="6.09391">
        <ele>1120</ele>
        <time>2022-08-10T09:31:39Z</time>
      </trkpt>
      <trkpt lat="46.69161" lon="6.09435">
        <ele>1118</ele>
        <time>2022-08-10T09:31:55Z</time>
      </trkpt>
      <trkpt lat="46.69097" lon="6.09333">
        <ele>1120</ele>
        <time>2022-08-10T09:32:18Z</time>
      </trkpt>
      <trkpt lat="46.69064" lon="6.09314">
        <ele>1118</ele>
        <time>2022-08-10T09:32:26Z</time>
      </trkpt>
      <trkpt lat="46.69032" lon="6.09315">
        <ele>1114</ele>
        <time>2022-08-10T09:32:33Z</time>
      </trkpt>
      <trkpt lat="46.68929" lon="6.09151">
        <ele>1119</ele>
        <time>2022-08-10T09:33:09Z</time>
      </trkpt>
      <trkpt lat="46.68912" lon="6.09094">
        <ele>1126</ele>
        <time>2022-08-10T09:33:19Z</time>
      </trkpt>
      <trkpt lat="46.68919" lon="6.09035">
        <ele>1132</ele>
        <time>2022-08-10T09:33:29Z</time>
      </trkpt>
      <trkpt lat="46.68896" lon="6.08982">
        <ele>1133</ele>
        <time>2022-08-10T09:33:39Z</time>
      </trkpt>
      <trkpt lat="46.68875" lon="6.08944">
        <ele>1132</ele>
        <time>2022-08-10T09:33:46Z</time>
      </trkpt>
      <trkpt lat="46.68803" lon="6.08919">
        <ele>1123</ele>
        <time>2022-08-10T09:34:04Z</time>
      </trkpt>
      <trkpt lat="46.68775" lon="6.08826">
        <ele>1118</ele>
        <time>2022-08-10T09:34:20Z</time>
      </trkpt>
      <trkpt lat="46.68747" lon="6.08781">
        <ele>1113</ele>
        <time>2022-08-10T09:34:30Z</time>
      </trkpt>
      <trkpt lat="46.6874" lon="6.08725">
        <ele>1112</ele>
        <time>2022-08-10T09:34:39Z</time>
      </trkpt>
      <trkpt lat="46.68653" lon="6.08709">
        <ele>1102</ele>
        <time>2022-08-10T09:34:59Z</time>
      </trkpt>
      <trkpt lat="46.68622" lon="6.08684">
        <ele>1100</ele>
        <time>2022-08-10T09:35:08Z</time>
      </trkpt>
      <trkpt lat="46.68586" lon="6.08685">
        <ele>1096</ele>
        <time>2022-08-10T09:35:16Z</time>
      </trkpt>
      <trkpt lat="46.68527" lon="6.08645">
        <ele>1093</ele>
        <time>2022-08-10T09:35:31Z</time>
      </trkpt>
      <trkpt lat="46.68421" lon="6.08592">
        <ele>1083</ele>
        <time>2022-08-10T09:35:57Z</time>
      </trkpt>
      <trkpt lat="46.68374" lon="6.08661">
        <ele>1076</ele>
        <time>2022-08-10T09:36:13Z</time>
      </trkpt>
      <trkpt lat="46.68335" lon="6.0871">
        <ele>1072</ele>
        <time>2022-08-10T09:36:25Z</time>
      </trkpt>
      <trkpt lat="46.68334" lon="6.08615">
        <ele>1073</ele>
        <time>2022-08-10T09:36:40Z</time>
      </trkpt>
      <trkpt lat="46.68311" lon="6.08555">
        <ele>1071</ele>
        <time>2022-08-10T09:36:51Z</time>
      </trkpt>
      <trkpt lat="46.68293" lon="6.08491">
        <ele>1069</ele>
        <time>2022-08-10T09:37:02Z</time>
      </trkpt>
      <trkpt lat="46.68297" lon="6.08436">
        <ele>1071</ele>
        <time>2022-08-10T09:37:11Z</time>
      </trkpt>
      <trkpt lat="46.68328" lon="6.08389">
        <ele>1074</ele>
        <time>2022-08-10T09:37:22Z</time>
      </trkpt>
      <trkpt lat="46.68308" lon="6.08299">
        <ele>1078</ele>
        <time>2022-08-10T09:37:37Z</time>
      </trkpt>
      <trkpt lat="46.68307" lon="6.0822">
        <ele>1083</ele>
        <time>2022-08-10T09:37:49Z</time>
      </trkpt>
      <trkpt lat="46.6826" lon="6.08185">
        <ele>1080</ele>
        <time>2022-08-10T09:38:02Z</time>
      </trkpt>
      <trkpt lat="46.68184" lon="6.08114">
        <ele>1082</ele>
        <time>2022-08-10T09:38:23Z</time>
      </trkpt>
      <trkpt lat="46.68162" lon="6.08083">
        <ele>1086</ele>
        <time>2022-08-10T09:38:30Z</time>
      </trkpt>
      <trkpt lat="46.68124" lon="6.08009">
        <ele>1086</ele>
        <time>2022-08-10T09:38:45Z</time>
      </trkpt>
      <trkpt lat="46.68113" lon="6.07874">
        <ele>1094</ele>
        <time>2022-08-10T09:39:07Z</time>
      </trkpt>
      <trkpt lat="46.68085" lon="6.07819">
        <ele>1100</ele>
        <time>2022-08-10T09:39:18Z</time>
      </trkpt>
      <trkpt lat="46.68066" lon="6.07774">
        <ele>1106</ele>
        <time>2022-08-10T09:39:26Z</time>
      </trkpt>
      <trkpt lat="46.68047" lon="6.07719">
        <ele>1112</ele>
        <time>2022-08-10T09:39:36Z</time>
      </trkpt>
      <trkpt lat="46.68042" lon="6.07664">
        <ele>1117</ele>
        <time>2022-08-10T09:39:45Z</time>
      </trkpt>
      <trkpt lat="46.68064" lon="6.07558">
        <ele>1121</ele>
        <time>2022-08-10T09:40:02Z</time>
      </trkpt>
      <trkpt lat="46.68057" lon="6.07485">
        <ele>1119</ele>
        <time>2022-08-10T09:40:14Z</time>
      </trkpt>
      <trkpt lat="46.68043" lon="6.07463">
        <ele>1116</ele>
        <time>2022-08-10T09:40:19Z</time>
      </trkpt>
      <trkpt lat="46.68096" lon="6.07331">
        <ele>1118</ele>
        <time>2022-08-10T09:40:44Z</time>
      </trkpt>
      <trkpt lat="46.68121" lon="6.07261">
        <ele>1121</ele>
        <time>2022-08-10T09:40:56Z</time>
      </trkpt>
      <trkpt lat="46.68112" lon="6.07196">
        <ele>1121</ele>
        <time>2022-08-10T09:41:07Z</time>
      </trkpt>
      <trkpt lat="46.68108" lon="6.07052">
        <ele>1124</ele>
        <time>2022-08-10T09:41:30Z</time>
      </trkpt>
      <trkpt lat="46.68113" lon="6.06982">
        <ele>1126</ele>
        <time>2022-08-10T09:41:41Z</time>
      </trkpt>
      <trkpt lat="46.68098" lon="6.06911">
        <ele>1127</ele>
        <time>2022-08-10T09:41:53Z</time>
      </trkpt>
      <trkpt lat="46.68059" lon="6.06816">
        <ele>1128</ele>
        <time>2022-08-10T09:42:11Z</time>
      </trkpt>
      <trkpt lat="46.68004" lon="6.06718">
        <ele>1132</ele>
        <time>2022-08-10T09:42:31Z</time>
      </trkpt>
      <trkpt lat="46.67984" lon="6.06702">
        <ele>1132</ele>
        <time>2022-08-10T09:42:36Z</time>
      </trkpt>
      <trkpt lat="46.67944" lon="6.06692">
        <ele>1132</ele>
        <time>2022-08-10T09:42:46Z</time>
      </trkpt>
      <trkpt lat="46.67912" lon="6.06685">
        <ele>1131</ele>
        <time>2022-08-10T09:42:54Z</time>
      </trkpt>
      <trkpt lat="46.6784" lon="6.0668">
        <ele>1130</ele>
        <time>2022-08-10T09:43:10Z</time>
      </trkpt>
      <trkpt lat="46.67747" lon="6.06638">
        <ele>1130</ele>
        <time>2022-08-10T09:43:33Z</time>
      </trkpt>
      <trkpt lat="46.67721" lon="6.06638">
        <ele>1128</ele>
        <time>2022-08-10T09:43:39Z</time>
      </trkpt>
      <trkpt lat="46.67642" lon="6.06673">
        <ele>1122</ele>
        <time>2022-08-10T09:43:58Z</time>
      </trkpt>
      <trkpt lat="46.6761" lon="6.06666">
        <ele>1119</ele>
        <time>2022-08-10T09:44:06Z</time>
      </trkpt>
      <trkpt lat="46.67577" lon="6.06633">
        <ele>1116</ele>
        <time>2022-08-10T09:44:15Z</time>
      </trkpt>
      <trkpt lat="46.67535" lon="6.06602">
        <ele>1108</ele>
        <time>2022-08-10T09:44:26Z</time>
      </trkpt>
      <trkpt lat="46.67508" lon="6.06562">
        <ele>1104</ele>
        <time>2022-08-10T09:44:35Z</time>
      </trkpt>
      <trkpt lat="46.67475" lon="6.06537">
        <ele>1100</ele>
        <time>2022-08-10T09:44:44Z</time>
      </trkpt>
      <trkpt lat="46.67443" lon="6.06481">
        <ele>1096</ele>
        <time>2022-08-10T09:44:56Z</time>
      </trkpt>
      <trkpt lat="46.67391" lon="6.06507">
        <ele>1087</ele>
        <time>2022-08-10T09:45:09Z</time>
      </trkpt>
      <trkpt lat="46.67361" lon="6.06546">
        <ele>1080</ele>
        <time>2022-08-10T09:45:18Z</time>
      </trkpt>
      <trkpt lat="46.67328" lon="6.06597">
        <ele>1072</ele>
        <time>2022-08-10T09:45:29Z</time>
      </trkpt>
      <trkpt lat="46.6731" lon="6.06608">
        <ele>1068</ele>
        <time>2022-08-10T09:45:34Z</time>
      </trkpt>
      <trkpt lat="46.67285" lon="6.0665">
        <ele>1061</ele>
        <time>2022-08-10T09:45:43Z</time>
      </trkpt>
      <trkpt lat="46.67282" lon="6.06717">
        <ele>1059</ele>
        <time>2022-08-10T09:45:53Z</time>
      </trkpt>
      <trkpt lat="46.67299" lon="6.06775">
        <ele>1061</ele>
        <time>2022-08-10T09:46:03Z</time>
      </trkpt>
      <trkpt lat="46.67296" lon="6.06847">
        <ele>1059</ele>
        <time>2022-08-10T09:46:15Z</time>
      </trkpt>
      <trkpt lat="46.67324" lon="6.06926">
        <ele>1062</ele>
        <time>2022-08-10T09:46:29Z</time>
      </trkpt>
      <trkpt lat="46.67334" lon="6.0694">
        <ele>1063</ele>
        <time>2022-08-10T09:46:33Z</time>
      </trkpt>
      <trkpt lat="46.67341" lon="6.06973">
        <ele>1063</ele>
        <time>2022-08-10T09:46:38Z</time>
      </trkpt>
      <trkpt lat="46.67336" lon="6.07017">
        <ele>1061</ele>
        <time>2022-08-10T09:46:45Z</time>
      </trkpt>
      <trkpt lat="46.67316" lon="6.07076">
        <ele>1056</ele>
        <time>2022-08-10T09:46:56Z</time>
      </trkpt>
      <trkpt lat="46.673" lon="6.07304">
        <ele>1052</ele>
        <time>2022-08-10T09:47:32Z</time>
      </trkpt>
      <trkpt lat="46.67291" lon="6.07357">
        <ele>1050</ele>
        <time>2022-08-10T09:47:41Z</time>
      </trkpt>
      <trkpt lat="46.67257" lon="6.07419">
        <ele>1047</ele>
        <time>2022-08-10T09:47:54Z</time>
      </trkpt>
      <trkpt lat="46.6721" lon="6.07257">
        <ele>1040</ele>
        <time>2022-08-10T09:48:22Z</time>
      </trkpt>
      <trkpt lat="46.67147" lon="6.07129">
        <ele>1036</ele>
        <time>2022-08-10T09:48:47Z</time>
      </trkpt>
      <trkpt lat="46.67125" lon="6.06996">
        <ele>1034</ele>
        <time>2022-08-10T09:49:09Z</time>
      </trkpt>
      <trkpt lat="46.67076" lon="6.06879">
        <ele>1030</ele>
        <time>2022-08-10T09:49:31Z</time>
      </trkpt>
      <trkpt lat="46.67059" lon="6.06594">
        <ele>1035</ele>
        <time>2022-08-10T09:50:17Z</time>
      </trkpt>
      <trkpt lat="46.67033" lon="6.06422">
        <ele>1046</ele>
        <time>2022-08-10T09:50:45Z</time>
      </trkpt>
      <trkpt lat="46.67041" lon="6.06193">
        <ele>1051</ele>
        <time>2022-08-10T09:51:22Z</time>
      </trkpt>
      <trkpt lat="46.67034" lon="6.05892">
        <ele>1058</ele>
        <time>2022-08-10T09:52:10Z</time>
      </trkpt>
      <trkpt lat="46.67012" lon="6.05848">
        <ele>1057</ele>
        <time>2022-08-10T09:52:19Z</time>
      </trkpt>
      <trkpt lat="46.67003" lon="6.05779">
        <ele>1058</ele>
        <time>2022-08-10T09:52:30Z</time>
      </trkpt>
      <trkpt lat="46.66961" lon="6.05704">
        <ele>1057</ele>
        <time>2022-08-10T09:52:46Z</time>
      </trkpt>
      <trkpt lat="46.66947" lon="6.05634">
        <ele>1058</ele>
        <time>2022-08-10T09:52:58Z</time>
      </trkpt>
      <trkpt lat="46.66933" lon="6.05597">
        <ele>1058</ele>
        <time>2022-08-10T09:53:04Z</time>
      </trkpt>
      <trkpt lat="46.66932" lon="6.05538">
        <ele>1060</ele>
        <time>2022-08-10T09:53:14Z</time>
      </trkpt>
      <trkpt lat="46.66879" lon="6.05381">
        <ele>1062</ele>
        <time>2022-08-10T09:53:42Z</time>
      </trkpt>
      <trkpt lat="46.66882" lon="6.05293">
        <ele>1061</ele>
        <time>2022-08-10T09:53:56Z</time>
      </trkpt>
      <trkpt lat="46.66868" lon="6.05243">
        <ele>1061</ele>
        <time>2022-08-10T09:54:05Z</time>
      </trkpt>
      <trkpt lat="46.66814" lon="6.0517">
        <ele>1060</ele>
        <time>2022-08-10T09:54:22Z</time>
      </trkpt>
      <trkpt lat="46.66771" lon="6.05105">
        <ele>1063</ele>
        <time>2022-08-10T09:54:36Z</time>
      </trkpt>
      <trkpt lat="46.66762" lon="6.05026">
        <ele>1066</ele>
        <time>2022-08-10T09:54:49Z</time>
      </trkpt>
      <trkpt lat="46.66744" lon="6.04969">
        <ele>1067</ele>
        <time>2022-08-10T09:54:59Z</time>
      </trkpt>
      <trkpt lat="46.66731" lon="6.04939">
        <ele>1066</ele>
        <time>2022-08-10T09:55:05Z</time>
      </trkpt>
      <trkpt lat="46.66701" lon="6.04894">
        <ele>1064</ele>
        <time>2022-08-10T09:55:15Z</time>
      </trkpt>
      <trkpt lat="46.66685" lon="6.04834">
        <ele>1062</ele>
        <time>2022-08-10T09:55:25Z</time>
      </trkpt>
      <trkpt lat="46.66686" lon="6.04733">
        <ele>1054</ele>
        <time>2022-08-10T09:55:41Z</time>
      </trkpt>
      <trkpt lat="46.66706" lon="6.04689">
        <ele>1057</ele>
        <time>2022-08-10T09:55:50Z</time>
      </trkpt>
      <trkpt lat="46.66708" lon="6.04633">
        <ele>1057</ele>
        <time>2022-08-10T09:55:59Z</time>
      </trkpt>
      <trkpt lat="46.66742" lon="6.04596">
        <ele>1064</ele>
        <time>2022-08-10T09:56:09Z</time>
      </trkpt>
      <trkpt lat="46.66764" lon="6.04568">
        <ele>1068</ele>
        <time>2022-08-10T09:56:16Z</time>
      </trkpt>
      <trkpt lat="46.66774" lon="6.04517">
        <ele>1070</ele>
        <time>2022-08-10T09:56:24Z</time>
      </trkpt>
      <trkpt lat="46.66804" lon="6.04499">
        <ele>1076</ele>
        <time>2022-08-10T09:56:32Z</time>
      </trkpt>
      <trkpt lat="46.66867" lon="6.04363">
        <ele>1083</ele>
        <time>2022-08-10T09:56:58Z</time>
      </trkpt>
      <trkpt lat="46.66909" lon="6.04317">
        <ele>1090</ele>
        <time>2022-08-10T09:57:10Z</time>
      </trkpt>
      <trkpt lat="46.66927" lon="6.04315">
        <ele>1094</ele>
        <time>2022-08-10T09:57:14Z</time>
      </trkpt>
      <trkpt lat="46.67074" lon="6.04177">
        <ele>1112</ele>
        <time>2022-08-10T09:57:55Z</time>
      </trkpt>
      <trkpt lat="46.67086" lon="6.04155">
        <ele>1108</ele>
        <time>2022-08-10T09:58:00Z</time>
      </trkpt>
      <trkpt lat="46.67245" lon="6.04179">
        <ele>1083</ele>
        <time>2022-08-10T09:58:37Z</time>
      </trkpt>
      <trkpt lat="46.67313" lon="6.04155">
        <ele>1059</ele>
        <time>2022-08-10T09:58:53Z</time>
      </trkpt>
      <trkpt lat="46.67405" lon="6.04249">
        <ele>1050</ele>
        <time>2022-08-10T09:59:20Z</time>
      </trkpt>
      <trkpt lat="46.67421" lon="6.0429">
        <ele>1059</ele>
        <time>2022-08-10T09:59:27Z</time>
      </trkpt>
      <trkpt lat="46.67521" lon="6.04401">
        <ele>1066</ele>
        <time>2022-08-10T09:59:57Z</time>
      </trkpt>
      <trkpt lat="46.67588" lon="6.04419">
        <ele>1049</ele>
        <time>2022-08-10T10:00:12Z</time>
      </trkpt>
      <trkpt lat="46.67589" lon="6.04448">
        <ele>1058</ele>
        <time>2022-08-10T10:00:17Z</time>
      </trkpt>
      <trkpt lat="46.6762" lon="6.04473">
        <ele>1055</ele>
        <time>2022-08-10T10:00:25Z</time>
      </trkpt>
      <trkpt lat="46.67693" lon="6.04583">
        <ele>1050</ele>
        <time>2022-08-10T10:00:50Z</time>
      </trkpt>
      <trkpt lat="46.67745" lon="6.04642">
        <ele>1042</ele>
        <time>2022-08-10T10:01:05Z</time>
      </trkpt>
      <trkpt lat="46.67791" lon="6.04632">
        <ele>1036</ele>
        <time>2022-08-10T10:01:16Z</time>
      </trkpt>
      <trkpt lat="46.67883" lon="6.04629">
        <ele>1035</ele>
        <time>2022-08-10T10:01:38Z</time>
      </trkpt>
      <trkpt lat="46.67934" lon="6.04573">
        <ele>1039</ele>
        <time>2022-08-10T10:01:53Z</time>
      </trkpt>
      <trkpt lat="46.67968" lon="6.04563">
        <ele>1042</ele>
        <time>2022-08-10T10:02:01Z</time>
      </trkpt>
      <trkpt lat="46.68029" lon="6.04501">
        <ele>1058</ele>
        <time>2022-08-10T10:02:18Z</time>
      </trkpt>
      <trkpt lat="46.68269" lon="6.04937">
        <ele>1064</ele>
        <time>2022-08-10T10:03:48Z</time>
      </trkpt>
      <trkpt lat="46.68443" lon="6.05066">
        <ele>1078</ele>
        <time>2022-08-10T10:04:33Z</time>
      </trkpt>
      <trkpt lat="46.68549" lon="6.05191">
        <ele>1086</ele>
        <time>2022-08-10T10:05:05Z</time>
      </trkpt>
      <trkpt lat="46.68628" lon="6.05266">
        <ele>1090</ele>
        <time>2022-08-10T10:05:27Z</time>
      </trkpt>
      <trkpt lat="46.68711" lon="6.05422">
        <ele>1093</ele>
        <time>2022-08-10T10:05:59Z</time>
      </trkpt>
      <trkpt lat="46.68758" lon="6.05477">
        <ele>1097</ele>
        <time>2022-08-10T10:06:13Z</time>
      </trkpt>
      <trkpt lat="46.68775" lon="6.05528">
        <ele>1096</ele>
        <time>2022-08-10T10:06:22Z</time>
      </trkpt>
      <trkpt lat="46.68859" lon="6.05622">
        <ele>1105</ele>
        <time>2022-08-10T10:06:47Z</time>
      </trkpt>
      <trkpt lat="46.68958" lon="6.05831">
        <ele>1112</ele>
        <time>2022-08-10T10:07:27Z</time>
      </trkpt>
      <trkpt lat="46.68998" lon="6.05936">
        <ele>1113</ele>
        <time>2022-08-10T10:07:46Z</time>
      </trkpt>
      <trkpt lat="46.69079" lon="6.06085">
        <ele>1116</ele>
        <time>2022-08-10T10:08:17Z</time>
      </trkpt>
      <trkpt lat="46.69142" lon="6.06142">
        <ele>1127</ele>
        <time>2022-08-10T10:08:34Z</time>
      </trkpt>
      <trkpt lat="46.69215" lon="6.06242">
        <ele>1131</ele>
        <time>2022-08-10T10:08:58Z</time>
      </trkpt>
      <trkpt lat="46.69326" lon="6.06452">
        <ele>1149</ele>
        <time>2022-08-10T10:09:40Z</time>
      </trkpt>
      <trkpt lat="46.69344" lon="6.06543">
        <ele>1153</ele>
        <time>2022-08-10T10:09:55Z</time>
      </trkpt>
      <trkpt lat="46.69435" lon="6.06688">
        <ele>1155</ele>
        <time>2022-08-10T10:10:27Z</time>
      </trkpt>
      <trkpt lat="46.69476" lon="6.06823">
        <ele>1153</ele>
        <time>2022-08-10T10:10:50Z</time>
      </trkpt>
      <trkpt lat="46.69555" lon="6.06974">
        <ele>1141</ele>
        <time>2022-08-10T10:11:21Z</time>
      </trkpt>
      <trkpt lat="46.69586" lon="6.07048">
        <ele>1136</ele>
        <time>2022-08-10T10:11:35Z</time>
      </trkpt>
      <trkpt lat="46.69666" lon="6.07155">
        <ele>1113.3</ele>
        <time>2022-08-10T10:11:53Z</time>
      </trkpt>
      <trkpt lat="46.69685" lon="6.0724">
        <ele>1116.1</ele>
        <time>2022-08-10T10:12:09Z</time>
      </trkpt>
      <trkpt lat="46.69713" lon="6.07287">
        <ele>1117.6</ele>
        <time>2022-08-10T10:12:22Z</time>
      </trkpt>
      <trkpt lat="46.69743" lon="6.07321">
        <ele>1114.7</ele>
        <time>2022-08-10T10:12:28Z</time>
      </trkpt>
      <trkpt lat="46.6977" lon="6.07321">
        <ele>1113.9</ele>
        <time>2022-08-10T10:12:46Z</time>
      </trkpt>
      <trkpt lat="46.69791" lon="6.0732">
        <ele>1113</ele>
        <time>2022-08-10T10:13:00Z</time>
      </trkpt>
      <trkpt lat="46.69818" lon="6.07324">
        <ele>1112.9</ele>
        <time>2022-08-10T10:13:07Z</time>
      </trkpt>
      <trkpt lat="46.69838" lon="6.07319">
        <ele>1112.6</ele>
      </trkpt>
      <trkpt lat="46.69852" lon="6.07295">
        <ele>1109.7</ele>
      </trkpt>
      <trkpt lat="46.69861" lon="6.07247">
        <ele>1099.2</ele>
      </trkpt>
      <trkpt lat="46.69871" lon="6.07212">
        <ele>1092.2</ele>
      </trkpt>
      <trkpt lat="46.69891" lon="6.07208">
        <ele>1091.1</ele>
      </trkpt>
      <trkpt lat="46.69911" lon="6.07219">
        <ele>1092</ele>
        <time>2022-08-10T10:13:17Z</time>
      </trkpt>
      <trkpt lat="46.69982" lon="6.07365">
        <ele>1091</ele>
        <time>2022-08-10T10:13:45Z</time>
      </trkpt>
      <trkpt lat="46.69996" lon="6.07435">
        <ele>1098</ele>
        <time>2022-08-10T10:13:57Z</time>
      </trkpt>
      <trkpt lat="46.70072" lon="6.07537">
        <ele>1084</ele>
        <time>2022-08-10T10:14:21Z</time>
      </trkpt>
      <trkpt lat="46.70102" lon="6.07606">
        <ele>1085</ele>
        <time>2022-08-10T10:14:34Z</time>
      </trkpt>
      <trkpt lat="46.70065" lon="6.07459">
        <ele>1071</ele>
        <time>2022-08-10T10:14:59Z</time>
      </trkpt>
      <trkpt lat="46.7003" lon="6.07417">
        <ele>1078</ele>
        <time>2022-08-10T10:15:10Z</time>
      </trkpt>
      <trkpt lat="46.70029" lon="6.07381">
        <ele>1073</ele>
        <time>2022-08-10T10:15:16Z</time>
      </trkpt>
      <trkpt lat="46.70033" lon="6.07349">
        <ele>1066</ele>
        <time>2022-08-10T10:15:21Z</time>
      </trkpt>
      <trkpt lat="46.70004" lon="6.07245">
        <ele>1063</ele>
        <time>2022-08-10T10:15:39Z</time>
      </trkpt>
      <trkpt lat="46.69966" lon="6.07181">
        <ele>1063</ele>
        <time>2022-08-10T10:15:52Z</time>
      </trkpt>
      <trkpt lat="46.69938" lon="6.07152">
        <ele>1068</ele>
        <time>2022-08-10T10:16:00Z</time>
      </trkpt>
      <trkpt lat="46.69886" lon="6.06998">
        <ele>1050</ele>
        <time>2022-08-10T10:16:28Z</time>
      </trkpt>
      <trkpt lat="46.6979" lon="6.06841">
        <ele>1051</ele>
        <time>2022-08-10T10:17:01Z</time>
      </trkpt>
      <trkpt lat="46.69763" lon="6.06708">
        <ele>1039</ele>
        <time>2022-08-10T10:17:24Z</time>
      </trkpt>
      <trkpt lat="46.69729" lon="6.06582">
        <ele>1037</ele>
        <time>2022-08-10T10:17:45Z</time>
      </trkpt>
      <trkpt lat="46.69719" lon="6.06529">
        <ele>1036</ele>
        <time>2022-08-10T10:17:54Z</time>
      </trkpt>
      <trkpt lat="46.69726" lon="6.06473">
        <ele>1025</ele>
        <time>2022-08-10T10:18:03Z</time>
      </trkpt>
      <trkpt lat="46.6969" lon="6.0633">
        <ele>1021</ele>
        <time>2022-08-10T10:18:28Z</time>
      </trkpt>
      <trkpt lat="46.6975" lon="6.06416">
        <ele>1007</ele>
        <time>2022-08-10T10:18:47Z</time>
      </trkpt>
      <trkpt lat="46.69807" lon="6.066">
        <ele>998</ele>
        <time>2022-08-10T10:19:20Z</time>
      </trkpt>
      <trkpt lat="46.69853" lon="6.06695">
        <ele>993</ele>
        <time>2022-08-10T10:19:38Z</time>
      </trkpt>
      <trkpt lat="46.69934" lon="6.06835">
        <ele>994</ele>
        <time>2022-08-10T10:20:08Z</time>
      </trkpt>
      <trkpt lat="46.70025" lon="6.06946">
        <ele>993</ele>
        <time>2022-08-10T10:20:35Z</time>
      </trkpt>
      <trkpt lat="46.70077" lon="6.0708">
        <ele>1003</ele>
        <time>2022-08-10T10:21:00Z</time>
      </trkpt>
      <trkpt lat="46.70122" lon="6.07237">
        <ele>1005</ele>
        <time>2022-08-10T10:21:27Z</time>
      </trkpt>
      <trkpt lat="46.70176" lon="6.07293">
        <ele>990</ele>
        <time>2022-08-10T10:21:43Z</time>
      </trkpt>
      <trkpt lat="46.70239" lon="6.07425">
        <ele>979</ele>
        <time>2022-08-10T10:22:08Z</time>
      </trkpt>
      <trkpt lat="46.70273" lon="6.07581">
        <ele>969</ele>
        <time>2022-08-10T10:22:35Z</time>
      </trkpt>
      <trkpt lat="46.70316" lon="6.07755">
        <ele>967</ele>
        <time>2022-08-10T10:23:04Z</time>
      </trkpt>
      <trkpt lat="46.70384" lon="6.07821">
        <ele>951</ele>
        <time>2022-08-10T10:23:23Z</time>
      </trkpt>
      <trkpt lat="46.705" lon="6.07728">
        <ele>935</ele>
        <time>2022-08-10T10:23:54Z</time>
      </trkpt>
      <trkpt lat="46.70551" lon="6.07735">
        <ele>940</ele>
        <time>2022-08-10T10:24:06Z</time>
      </trkpt>
      <trkpt lat="46.70606" lon="6.07788">
        <ele>946</ele>
        <time>2022-08-10T10:24:22Z</time>
      </trkpt>
      <trkpt lat="46.70666" lon="6.07795">
        <ele>948</ele>
        <time>2022-08-10T10:24:36Z</time>
      </trkpt>
      <trkpt lat="46.70745" lon="6.07738">
        <ele>947</ele>
        <time>2022-08-10T10:24:56Z</time>
      </trkpt>
      <trkpt lat="46.70726" lon="6.07857">
        <ele>944.2</ele>
      </trkpt>
      <trkpt lat="46.7071" lon="6.0795">
        <ele>943.3</ele>
        <time>2022-08-10T10:25:18Z</time>
      </trkpt>
      <trkpt lat="46.70724" lon="6.0801">
        <ele>946</ele>
        <time>2022-08-10T10:25:45Z</time>
      </trkpt>
      <trkpt lat="46.70757" lon="6.08055">
        <ele>943.8</ele>
        <time>2022-08-10T10:26:03Z</time>
      </trkpt>
      <trkpt lat="46.70784" lon="6.0811">
        <ele>939.5</ele>
        <time>2022-08-10T10:26:21Z</time>
      </trkpt>
      <trkpt lat="46.70799" lon="6.08186">
        <ele>938.6</ele>
        <time>2022-08-10T10:26:38Z</time>
      </trkpt>
      <trkpt lat="46.70828" lon="6.08246">
        <ele>937.9</ele>
        <time>2022-08-10T10:26:57Z</time>
      </trkpt>
      <trkpt lat="46.70872" lon="6.08274">
        <ele>941.8</ele>
        <time>2022-08-10T10:27:08Z</time>
      </trkpt>
      <trkpt lat="46.70893" lon="6.08316">
        <ele>943.6</ele>
        <time>2022-08-10T10:27:21Z</time>
      </trkpt>
      <trkpt lat="46.70922" lon="6.08334">
        <ele>942.4</ele>
        <time>2022-08-10T10:27:31Z</time>
      </trkpt>
      <trkpt lat="46.70955" lon="6.08368">
        <ele>943.1</ele>
        <time>2022-08-10T10:27:45Z</time>
      </trkpt>
      <trkpt lat="46.70969" lon="6.08407">
        <ele>942</ele>
        <time>2022-08-10T10:27:56Z</time>
      </trkpt>
      <trkpt lat="46.7098" lon="6.08484">
        <ele>938.5</ele>
        <time>2022-08-10T10:28:13Z</time>
      </trkpt>
      <trkpt lat="46.7099" lon="6.08557">
        <ele>932.6</ele>
      </trkpt>
      <trkpt lat="46.70981" lon="6.08666">
        <ele>926.7</ele>
      </trkpt>
      <trkpt lat="46.70981" lon="6.08728">
        <ele>926.2</ele>
      </trkpt>
      <trkpt lat="46.70999" lon="6.08787">
        <ele>926</ele>
      </trkpt>
      <trkpt lat="46.71019" lon="6.08827">
        <ele>926.4</ele>
      </trkpt>
      <trkpt lat="46.71034" lon="6.08857">
        <ele>927.1</ele>
      </trkpt>
      <trkpt lat="46.71061" lon="6.08899">
        <ele>927.7</ele>
      </trkpt>
      <trkpt lat="46.71076" lon="6.08933">
        <ele>928.9</ele>
      </trkpt>
      <trkpt lat="46.71081" lon="6.08972">
        <ele>929.2</ele>
      </trkpt>
      <trkpt lat="46.71076" lon="6.09006">
        <ele>930</ele>
      </trkpt>
      <trkpt lat="46.7107" lon="6.09048">
        <ele>928.7</ele>
      </trkpt>
      <trkpt lat="46.71075" lon="6.09095">
        <ele>929.7</ele>
      </trkpt>
      <trkpt lat="46.71065" lon="6.0914">
        <ele>932.8</ele>
      </trkpt>
      <trkpt lat="46.71099" lon="6.09183">
        <ele>935.5</ele>
      </trkpt>
      <trkpt lat="46.71119" lon="6.09205">
        <ele>936.7</ele>
      </trkpt>
      <trkpt lat="46.71155" lon="6.09231">
        <ele>938</ele>
      </trkpt>
      <trkpt lat="46.7119" lon="6.09263">
        <ele>938.6</ele>
      </trkpt>
      <trkpt lat="46.71221" lon="6.09306">
        <ele>940.1</ele>
      </trkpt>
      <trkpt lat="46.71256" lon="6.09344">
        <ele>943.5</ele>
      </trkpt>
      <trkpt lat="46.71289" lon="6.09381">
        <ele>944</ele>
      </trkpt>
      <trkpt lat="46.71327" lon="6.09447">
        <ele>946.8</ele>
      </trkpt>
      <trkpt lat="46.71377" lon="6.09512">
        <ele>949.5</ele>
      </trkpt>
      <trkpt lat="46.71428" lon="6.09537">
        <ele>947.9</ele>
      </trkpt>
      <trkpt lat="46.71493" lon="6.0954">
        <ele>949</ele>
        <time>2022-08-10T10:37:18Z</time>
      </trkpt>
      <trkpt lat="46.71481" lon="6.09584">
        <ele>956</ele>
        <time>2022-08-10T10:37:30Z</time>
      </trkpt>
      <trkpt lat="46.71475" lon="6.09645">
        <ele>959</ele>
        <time>2022-08-10T10:37:40Z</time>
      </trkpt>
      <trkpt lat="46.71486" lon="6.09711">
        <ele>964</ele>
        <time>2022-08-10T10:37:51Z</time>
      </trkpt>
      <trkpt lat="46.7148" lon="6.09757">
        <ele>967</ele>
        <time>2022-08-10T10:37:58Z</time>
      </trkpt>
      <trkpt lat="46.71487" lon="6.0981">
        <ele>972</ele>
        <time>2022-08-10T10:38:07Z</time>
      </trkpt>
      <trkpt lat="46.71483" lon="6.09934">
        <ele>986</ele>
        <time>2022-08-10T10:38:27Z</time>
      </trkpt>
      <trkpt lat="46.71498" lon="6.09977">
        <ele>989</ele>
        <time>2022-08-10T10:38:34Z</time>
      </trkpt>
      <trkpt lat="46.71497" lon="6.10063">
        <ele>1002</ele>
        <time>2022-08-10T10:38:48Z</time>
      </trkpt>
      <trkpt lat="46.71548" lon="6.10158">
        <ele>1007</ele>
        <time>2022-08-10T10:39:07Z</time>
      </trkpt>
      <trkpt lat="46.71618" lon="6.10222">
        <ele>993</ele>
        <time>2022-08-10T10:39:27Z</time>
      </trkpt>
      <trkpt lat="46.71655" lon="6.10263">
        <ele>987</ele>
        <time>2022-08-10T10:39:37Z</time>
      </trkpt>
      <trkpt lat="46.71677" lon="6.10268">
        <ele>984</ele>
        <time>2022-08-10T10:39:43Z</time>
      </trkpt>
      <trkpt lat="46.71682" lon="6.10334">
        <ele>986</ele>
        <time>2022-08-10T10:39:53Z</time>
      </trkpt>
      <trkpt lat="46.7171" lon="6.10379">
        <ele>992</ele>
        <time>2022-08-10T10:40:03Z</time>
      </trkpt>
      <trkpt lat="46.71755" lon="6.10382">
        <ele>989</ele>
        <time>2022-08-10T10:40:14Z</time>
      </trkpt>
      <trkpt lat="46.71806" lon="6.10448">
        <ele>990</ele>
        <time>2022-08-10T10:40:29Z</time>
      </trkpt>
      <trkpt lat="46.71857" lon="6.10481">
        <ele>987</ele>
        <time>2022-08-10T10:40:43Z</time>
      </trkpt>
      <trkpt lat="46.71916" lon="6.10475">
        <ele>986</ele>
        <time>2022-08-10T10:40:56Z</time>
      </trkpt>
      <trkpt lat="46.71962" lon="6.10449">
        <ele>983</ele>
        <time>2022-08-10T10:41:08Z</time>
      </trkpt>
      <trkpt lat="46.71988" lon="6.10405">
        <ele>983</ele>
        <time>2022-08-10T10:41:17Z</time>
      </trkpt>
      <trkpt lat="46.72" lon="6.10373">
        <ele>985</ele>
        <time>2022-08-10T10:41:23Z</time>
      </trkpt>
      <trkpt lat="46.72046" lon="6.10343">
        <ele>988</ele>
        <time>2022-08-10T10:41:35Z</time>
      </trkpt>
      <trkpt lat="46.72104" lon="6.10364">
        <ele>985</ele>
        <time>2022-08-10T10:41:49Z</time>
      </trkpt>
      <trkpt lat="46.72159" lon="6.1041">
        <ele>976</ele>
        <time>2022-08-10T10:42:04Z</time>
      </trkpt>
      <trkpt lat="46.72207" lon="6.10518">
        <ele>974</ele>
        <time>2022-08-10T10:42:24Z</time>
      </trkpt>
      <trkpt lat="46.72189" lon="6.10602">
        <ele>981</ele>
        <time>2022-08-10T10:42:38Z</time>
      </trkpt>
      <trkpt lat="46.72176" lon="6.1065">
        <ele>987</ele>
        <time>2022-08-10T10:42:46Z</time>
      </trkpt>
      <trkpt lat="46.72136" lon="6.10706">
        <ele>992</ele>
        <time>2022-08-10T10:42:59Z</time>
      </trkpt>
      <trkpt lat="46.72127" lon="6.1083">
        <ele>997</ele>
        <time>2022-08-10T10:43:19Z</time>
      </trkpt>
      <trkpt lat="46.72169" lon="6.10915">
        <ele>999</ele>
        <time>2022-08-10T10:43:36Z</time>
      </trkpt>
      <trkpt lat="46.72265" lon="6.11075">
        <ele>1002</ele>
        <time>2022-08-10T10:44:10Z</time>
      </trkpt>
      <trkpt lat="46.72309" lon="6.11118">
        <ele>1001</ele>
        <time>2022-08-10T10:44:23Z</time>
      </trkpt>
      <trkpt lat="46.72505" lon="6.11545">
        <ele>1022</ele>
        <time>2022-08-10T10:45:45Z</time>
      </trkpt>
      <trkpt lat="46.72493" lon="6.11705">
        <ele>1032</ele>
        <time>2022-08-10T10:46:11Z</time>
      </trkpt>
      <trkpt lat="46.72508" lon="6.1178">
        <ele>1037</ele>
        <time>2022-08-10T10:46:23Z</time>
      </trkpt>
      <trkpt lat="46.7253" lon="6.11846">
        <ele>1042</ele>
        <time>2022-08-10T10:46:35Z</time>
      </trkpt>
      <trkpt lat="46.72558" lon="6.11868">
        <ele>1040</ele>
        <time>2022-08-10T10:46:42Z</time>
      </trkpt>
      <trkpt lat="46.72613" lon="6.11873">
        <ele>1033</ele>
        <time>2022-08-10T10:46:55Z</time>
      </trkpt>
      <trkpt lat="46.72704" lon="6.1199">
        <ele>1023</ele>
        <time>2022-08-10T10:47:23Z</time>
      </trkpt>
      <trkpt lat="46.72742" lon="6.11945">
        <ele>1022</ele>
        <time>2022-08-10T10:47:35Z</time>
      </trkpt>
      <trkpt lat="46.72781" lon="6.11965">
        <ele>1016</ele>
        <time>2022-08-10T10:47:45Z</time>
      </trkpt>
      <trkpt lat="46.72869" lon="6.11957">
        <ele>1010</ele>
        <time>2022-08-10T10:48:05Z</time>
      </trkpt>
      <trkpt lat="46.72918" lon="6.11907">
        <ele>1011</ele>
        <time>2022-08-10T10:48:19Z</time>
      </trkpt>
      <trkpt lat="46.72951" lon="6.11926">
        <ele>1008</ele>
        <time>2022-08-10T10:48:27Z</time>
      </trkpt>
      <trkpt lat="46.72987" lon="6.11928">
        <ele>1005</ele>
        <time>2022-08-10T10:48:36Z</time>
      </trkpt>
      <trkpt lat="46.73011" lon="6.12077">
        <ele>1005</ele>
        <time>2022-08-10T10:49:00Z</time>
      </trkpt>
      <trkpt lat="46.73018" lon="6.12212">
        <ele>1003</ele>
        <time>2022-08-10T10:49:22Z</time>
      </trkpt>
      <trkpt lat="46.73027" lon="6.12268">
        <ele>997</ele>
        <time>2022-08-10T10:49:31Z</time>
      </trkpt>
      <trkpt lat="46.7304" lon="6.12282">
        <ele>994</ele>
        <time>2022-08-10T10:49:35Z</time>
      </trkpt>
      <trkpt lat="46.73052" lon="6.12267">
        <ele>994</ele>
        <time>2022-08-10T10:49:39Z</time>
      </trkpt>
      <trkpt lat="46.73063" lon="6.12222">
        <ele>994</ele>
        <time>2022-08-10T10:49:46Z</time>
      </trkpt>
      <trkpt lat="46.7309" lon="6.12201">
        <ele>992</ele>
        <time>2022-08-10T10:49:53Z</time>
      </trkpt>
      <trkpt lat="46.73111" lon="6.12202">
        <ele>991</ele>
        <time>2022-08-10T10:49:58Z</time>
      </trkpt>
      <trkpt lat="46.73142" lon="6.1208">
        <ele>989</ele>
        <time>2022-08-10T10:50:19Z</time>
      </trkpt>
      <trkpt lat="46.73182" lon="6.11896">
        <ele>982</ele>
        <time>2022-08-10T10:50:50Z</time>
      </trkpt>
      <trkpt lat="46.73196" lon="6.11874">
        <ele>979</ele>
        <time>2022-08-10T10:50:55Z</time>
      </trkpt>
      <trkpt lat="46.73308" lon="6.11879">
        <ele>971</ele>
        <time>2022-08-10T10:51:21Z</time>
      </trkpt>
      <trkpt lat="46.73349" lon="6.11872">
        <ele>972</ele>
        <time>2022-08-10T10:51:31Z</time>
      </trkpt>
      <trkpt lat="46.73396" lon="6.11878">
        <ele>972</ele>
        <time>2022-08-10T10:51:42Z</time>
      </trkpt>
      <trkpt lat="46.73429" lon="6.11897">
        <ele>972</ele>
        <time>2022-08-10T10:51:50Z</time>
      </trkpt>
      <trkpt lat="46.73427" lon="6.11894">
        <ele>972</ele>
        <time>2022-08-10T10:51:51Z</time>
      </trkpt>
      <trkpt lat="46.73427" lon="6.11897">
        <ele>972</ele>
        <time>2022-08-10T10:51:51Z</time>
      </trkpt>
      <trkpt lat="46.73429" lon="6.11897">
        <ele>972</ele>
        <time>2022-08-10T10:51:52Z</time>
      </trkpt>
      <trkpt lat="46.73437" lon="6.11999">
        <ele>973</ele>
        <time>2022-08-10T10:52:08Z</time>
      </trkpt>
      <trkpt lat="46.73437" lon="6.12153">
        <ele>966</ele>
        <time>2022-08-10T10:52:33Z</time>
      </trkpt>
      <trkpt lat="46.73441" lon="6.12232">
        <ele>963</ele>
        <time>2022-08-10T10:52:45Z</time>
      </trkpt>
      <trkpt lat="46.73453" lon="6.12334">
        <ele>961</ele>
        <time>2022-08-10T10:53:02Z</time>
      </trkpt>
      <trkpt lat="46.73448" lon="6.12409">
        <ele>961</ele>
        <time>2022-08-10T10:53:14Z</time>
      </trkpt>
      <trkpt lat="46.73417" lon="6.12525">
        <ele>960</ele>
        <time>2022-08-10T10:53:34Z</time>
      </trkpt>
      <trkpt lat="46.73412" lon="6.12567">
        <ele>961</ele>
        <time>2022-08-10T10:53:41Z</time>
      </trkpt>
      <trkpt lat="46.73412" lon="6.1262">
        <ele>961</ele>
        <time>2022-08-10T10:53:49Z</time>
      </trkpt>
      <trkpt lat="46.73417" lon="6.12662">
        <ele>961</ele>
        <time>2022-08-10T10:53:56Z</time>
      </trkpt>
      <trkpt lat="46.73437" lon="6.12739">
        <ele>963</ele>
        <time>2022-08-10T10:54:09Z</time>
      </trkpt>
      <trkpt lat="46.73446" lon="6.12818">
        <ele>967</ele>
        <time>2022-08-10T10:54:22Z</time>
      </trkpt>
      <trkpt lat="46.73505" lon="6.12888">
        <ele>973</ele>
        <time>2022-08-10T10:54:40Z</time>
      </trkpt>
      <trkpt lat="46.73537" lon="6.13084">
        <ele>978</ele>
        <time>2022-08-10T10:55:12Z</time>
      </trkpt>
      <trkpt lat="46.73619" lon="6.13107">
        <ele>982</ele>
        <time>2022-08-10T10:55:32Z</time>
      </trkpt>
      <trkpt lat="46.73646" lon="6.13278">
        <ele>988</ele>
        <time>2022-08-10T10:56:00Z</time>
      </trkpt>
      <trkpt lat="46.73657" lon="6.13446">
        <ele>990</ele>
        <time>2022-08-10T10:56:27Z</time>
      </trkpt>
      <trkpt lat="46.73643" lon="6.13592">
        <ele>993</ele>
        <time>2022-08-10T10:56:50Z</time>
      </trkpt>
      <trkpt lat="46.73613" lon="6.13682">
        <ele>995</ele>
        <time>2022-08-10T10:57:06Z</time>
      </trkpt>
      <trkpt lat="46.73606" lon="6.13763">
        <ele>996</ele>
        <time>2022-08-10T10:57:19Z</time>
      </trkpt>
      <trkpt lat="46.73594" lon="6.13851">
        <ele>996</ele>
        <time>2022-08-10T10:57:34Z</time>
      </trkpt>
      <trkpt lat="46.73592" lon="6.13906">
        <ele>995</ele>
        <time>2022-08-10T10:57:43Z</time>
      </trkpt>
      <trkpt lat="46.73572" lon="6.13915">
        <ele>994</ele>
        <time>2022-08-10T10:57:47Z</time>
      </trkpt>
      <trkpt lat="46.73553" lon="6.13936">
        <ele>994</ele>
        <time>2022-08-10T10:57:53Z</time>
      </trkpt>
      <trkpt lat="46.73541" lon="6.13971">
        <ele>994</ele>
        <time>2022-08-10T10:57:59Z</time>
      </trkpt>
      <trkpt lat="46.73556" lon="6.14035">
        <ele>998</ele>
        <time>2022-08-10T10:58:10Z</time>
      </trkpt>
      <trkpt lat="46.73572" lon="6.14121">
        <ele>1004</ele>
        <time>2022-08-10T10:58:24Z</time>
      </trkpt>
      <trkpt lat="46.73584" lon="6.14145">
        <ele>1005</ele>
        <time>2022-08-10T10:58:29Z</time>
      </trkpt>
      <trkpt lat="46.73616" lon="6.1415">
        <ele>1007</ele>
        <time>2022-08-10T10:58:37Z</time>
      </trkpt>
      <trkpt lat="46.73667" lon="6.1417">
        <ele>1010</ele>
        <time>2022-08-10T10:58:49Z</time>
      </trkpt>
      <trkpt lat="46.73729" lon="6.14181">
        <ele>1016</ele>
        <time>2022-08-10T10:59:04Z</time>
      </trkpt>
      <trkpt lat="46.73843" lon="6.14222">
        <ele>1027</ele>
        <time>2022-08-10T10:59:31Z</time>
      </trkpt>
      <trkpt lat="46.73905" lon="6.14252">
        <ele>1029</ele>
        <time>2022-08-10T10:59:46Z</time>
      </trkpt>
      <trkpt lat="46.73935" lon="6.143">
        <ele>1028</ele>
        <time>2022-08-10T10:59:57Z</time>
      </trkpt>
      <trkpt lat="46.7394" lon="6.1436">
        <ele>1027</ele>
        <time>2022-08-10T11:00:06Z</time>
      </trkpt>
      <trkpt lat="46.73947" lon="6.14406">
        <ele>1027</ele>
        <time>2022-08-10T11:00:14Z</time>
      </trkpt>
      <trkpt lat="46.73955" lon="6.14436">
        <ele>1028</ele>
        <time>2022-08-10T11:00:19Z</time>
      </trkpt>
      <trkpt lat="46.7394" lon="6.14478">
        <ele>1028</ele>
        <time>2022-08-10T11:00:27Z</time>
      </trkpt>
      <trkpt lat="46.73912" lon="6.14512">
        <ele>1029</ele>
        <time>2022-08-10T11:00:35Z</time>
      </trkpt>
      <trkpt lat="46.73882" lon="6.14533">
        <ele>1029</ele>
        <time>2022-08-10T11:00:43Z</time>
      </trkpt>
      <trkpt lat="46.73835" lon="6.14605">
        <ele>1026</ele>
        <time>2022-08-10T11:00:59Z</time>
      </trkpt>
      <trkpt lat="46.73821" lon="6.14672">
        <ele>1022</ele>
        <time>2022-08-10T11:01:10Z</time>
      </trkpt>
      <trkpt lat="46.73882" lon="6.14667">
        <ele>1024</ele>
        <time>2022-08-10T11:01:24Z</time>
      </trkpt>
      <trkpt lat="46.73942" lon="6.14687">
        <ele>1024</ele>
        <time>2022-08-10T11:01:39Z</time>
      </trkpt>
      <trkpt lat="46.73982" lon="6.14703">
        <ele>1022</ele>
        <time>2022-08-10T11:01:48Z</time>
      </trkpt>
      <trkpt lat="46.74016" lon="6.14703">
        <ele>1021</ele>
        <time>2022-08-10T11:01:56Z</time>
      </trkpt>
      <trkpt lat="46.74062" lon="6.14748">
        <ele>1021</ele>
        <time>2022-08-10T11:02:09Z</time>
      </trkpt>
      <trkpt lat="46.74089" lon="6.14747">
        <ele>1020</ele>
        <time>2022-08-10T11:02:15Z</time>
      </trkpt>
      <trkpt lat="46.74115" lon="6.14782">
        <ele>1023</ele>
        <time>2022-08-10T11:02:24Z</time>
      </trkpt>
      <trkpt lat="46.74131" lon="6.14835">
        <ele>1026</ele>
        <time>2022-08-10T11:02:33Z</time>
      </trkpt>
      <trkpt lat="46.7404" lon="6.14992">
        <ele>1028</ele>
        <time>2022-08-10T11:03:06Z</time>
      </trkpt>
      <trkpt lat="46.74032" lon="6.15031">
        <ele>1029</ele>
        <time>2022-08-10T11:03:12Z</time>
      </trkpt>
      <trkpt lat="46.74045" lon="6.15045">
        <ele>1027</ele>
        <time>2022-08-10T11:03:16Z</time>
      </trkpt>
      <trkpt lat="46.74082" lon="6.15025">
        <ele>1024</ele>
        <time>2022-08-10T11:03:25Z</time>
      </trkpt>
      <trkpt lat="46.74138" lon="6.1496">
        <ele>1023</ele>
        <time>2022-08-10T11:03:42Z</time>
      </trkpt>
      <trkpt lat="46.74202" lon="6.14873">
        <ele>1020</ele>
        <time>2022-08-10T11:04:03Z</time>
      </trkpt>
      <trkpt lat="46.74257" lon="6.14844">
        <ele>1015</ele>
        <time>2022-08-10T11:04:16Z</time>
      </trkpt>
      <trkpt lat="46.74313" lon="6.14841">
        <ele>1009</ele>
        <time>2022-08-10T11:04:29Z</time>
      </trkpt>
      <trkpt lat="46.74364" lon="6.14858">
        <ele>1004</ele>
        <time>2022-08-10T11:04:41Z</time>
      </trkpt>
      <trkpt lat="46.74407" lon="6.14864">
        <ele>1000</ele>
        <time>2022-08-10T11:04:52Z</time>
      </trkpt>
      <trkpt lat="46.74436" lon="6.14801">
        <ele>999</ele>
        <time>2022-08-10T11:05:04Z</time>
      </trkpt>
      <trkpt lat="46.74504" lon="6.14722">
        <ele>987</ele>
      </trkpt>
      <trkpt lat="46.7457" lon="6.14677">
        <ele>986.6</ele>
        <time>2022-08-10T11:05:26Z</time>
      </trkpt>
      <trkpt lat="46.7464" lon="6.14655">
        <ele>985.9</ele>
      </trkpt>
      <trkpt lat="46.74679" lon="6.14627">
        <ele>982.7</ele>
        <time>2022-08-10T11:06:07Z</time>
      </trkpt>
      <trkpt lat="46.7472" lon="6.14616">
        <ele>979</ele>
        <time>2022-08-10T11:06:29Z</time>
      </trkpt>
      <trkpt lat="46.74737" lon="6.14642">
        <ele>979.6</ele>
        <time>2022-08-10T11:06:47Z</time>
      </trkpt>
      <trkpt lat="46.74779" lon="6.14728">
        <ele>983.9</ele>
        <time>2022-08-10T11:07:01Z</time>
      </trkpt>
      <trkpt lat="46.74917" lon="6.14713">
        <ele>994</ele>
      </trkpt>
      <trkpt lat="46.75027" lon="6.14702">
        <ele>1000.7</ele>
        <time>2022-08-10T11:07:15Z</time>
      </trkpt>
      <trkpt lat="46.75055" lon="6.147">
        <ele>1002</ele>
        <time>2022-08-10T11:07:26Z</time>
      </trkpt>
      <trkpt lat="46.75108" lon="6.14728">
        <ele>1002.7</ele>
        <time>2022-08-10T11:07:31Z</time>
      </trkpt>
      <trkpt lat="46.75143" lon="6.14739">
        <ele>1004.3</ele>
      </trkpt>
      <trkpt lat="46.75215" lon="6.14717">
        <ele>1005</ele>
        <time>2022-08-10T11:08:09Z</time>
      </trkpt>
      <trkpt lat="46.75255" lon="6.14734">
        <ele>1004.6</ele>
        <time>2022-08-10T11:08:26Z</time>
      </trkpt>
      <trkpt lat="46.75289" lon="6.14743">
        <ele>1005.4</ele>
      </trkpt>
      <trkpt lat="46.7537" lon="6.14765">
        <ele>1012</ele>
        <time>2022-08-10T11:08:48Z</time>
      </trkpt>
      <trkpt lat="46.75337" lon="6.14792">
        <ele>1013</ele>
        <time>2022-08-10T11:08:57Z</time>
      </trkpt>
      <trkpt lat="46.75297" lon="6.14852">
        <ele>1013</ele>
        <time>2022-08-10T11:09:10Z</time>
      </trkpt>
      <trkpt lat="46.7527" lon="6.14915">
        <ele>1013</ele>
        <time>2022-08-10T11:09:22Z</time>
      </trkpt>
      <trkpt lat="46.75264" lon="6.15033">
        <ele>1021</ele>
        <time>2022-08-10T11:09:41Z</time>
      </trkpt>
      <trkpt lat="46.75256" lon="6.15118">
        <ele>1026</ele>
        <time>2022-08-10T11:09:55Z</time>
      </trkpt>
      <trkpt lat="46.75239" lon="6.15162">
        <ele>1027</ele>
        <time>2022-08-10T11:10:03Z</time>
      </trkpt>
      <trkpt lat="46.7522" lon="6.15187">
        <ele>1027</ele>
        <time>2022-08-10T11:10:09Z</time>
      </trkpt>
      <trkpt lat="46.75168" lon="6.15216">
        <ele>1025</ele>
        <time>2022-08-10T11:10:22Z</time>
      </trkpt>
      <trkpt lat="46.75101" lon="6.15248">
        <ele>1027</ele>
        <time>2022-08-10T11:10:38Z</time>
      </trkpt>
      <trkpt lat="46.7505" lon="6.1529">
        <ele>1029</ele>
        <time>2022-08-10T11:10:52Z</time>
      </trkpt>
      <trkpt lat="46.75" lon="6.15322">
        <ele>1032</ele>
        <time>2022-08-10T11:11:04Z</time>
      </trkpt>
      <trkpt lat="46.74942" lon="6.15377">
        <ele>1029</ele>
        <time>2022-08-10T11:11:21Z</time>
      </trkpt>
      <trkpt lat="46.74961" lon="6.15411">
        <ele>1031</ele>
        <time>2022-08-10T11:11:28Z</time>
      </trkpt>
      <trkpt lat="46.74931" lon="6.15481">
        <ele>1033</ele>
        <time>2022-08-10T11:11:41Z</time>
      </trkpt>
      <trkpt lat="46.7491" lon="6.15585">
        <ele>1040</ele>
        <time>2022-08-10T11:11:58Z</time>
      </trkpt>
      <trkpt lat="46.74936" lon="6.15619">
        <ele>1043</ele>
        <time>2022-08-10T11:12:06Z</time>
      </trkpt>
      <trkpt lat="46.7493" lon="6.15648">
        <ele>1045</ele>
        <time>2022-08-10T11:12:11Z</time>
      </trkpt>
      <trkpt lat="46.74941" lon="6.15662">
        <ele>1047</ele>
        <time>2022-08-10T11:12:15Z</time>
      </trkpt>
      <trkpt lat="46.75019" lon="6.15609">
        <ele>1046</ele>
        <time>2022-08-10T11:12:35Z</time>
      </trkpt>
      <trkpt lat="46.7506" lon="6.15618">
        <ele>1052</ele>
        <time>2022-08-10T11:12:44Z</time>
      </trkpt>
      <trkpt lat="46.75081" lon="6.15659">
        <ele>1058</ele>
        <time>2022-08-10T11:12:53Z</time>
      </trkpt>
      <trkpt lat="46.75095" lon="6.15699">
        <ele>1061</ele>
        <time>2022-08-10T11:13:00Z</time>
      </trkpt>
      <trkpt lat="46.75089" lon="6.15745">
        <ele>1062</ele>
        <time>2022-08-10T11:13:07Z</time>
      </trkpt>
      <trkpt lat="46.75112" lon="6.15743">
        <ele>1063</ele>
        <time>2022-08-10T11:13:13Z</time>
      </trkpt>
      <trkpt lat="46.75215" lon="6.15691">
        <ele>1067</ele>
        <time>2022-08-10T11:13:38Z</time>
      </trkpt>
      <trkpt lat="46.75281" lon="6.15667">
        <ele>1068</ele>
        <time>2022-08-10T11:13:54Z</time>
      </trkpt>
      <trkpt lat="46.75357" lon="6.15709">
        <ele>1071</ele>
        <time>2022-08-10T11:14:13Z</time>
      </trkpt>
      <trkpt lat="46.75409" lon="6.15685">
        <ele>1070</ele>
        <time>2022-08-10T11:14:26Z</time>
      </trkpt>
      <trkpt lat="46.75605" lon="6.15542">
        <ele>1055</ele>
        <time>2022-08-10T11:15:17Z</time>
      </trkpt>
      <trkpt lat="46.75682" lon="6.15466">
        <ele>1046</ele>
        <time>2022-08-10T11:15:39Z</time>
      </trkpt>
      <trkpt lat="46.75813" lon="6.15473">
        <ele>1042</ele>
        <time>2022-08-10T11:16:09Z</time>
      </trkpt>
      <trkpt lat="46.7589" lon="6.15441">
        <ele>1036</ele>
        <time>2022-08-10T11:16:28Z</time>
      </trkpt>
      <trkpt lat="46.7599" lon="6.15405">
        <ele>1032</ele>
        <time>2022-08-10T11:16:52Z</time>
      </trkpt>
      <trkpt lat="46.76055" lon="6.15485">
        <ele>1036</ele>
        <time>2022-08-10T11:17:12Z</time>
      </trkpt>
      <trkpt lat="46.76102" lon="6.15567">
        <ele>1039</ele>
        <time>2022-08-10T11:17:29Z</time>
      </trkpt>
      <trkpt lat="46.76136" lon="6.15671">
        <ele>1042</ele>
        <time>2022-08-10T11:17:47Z</time>
      </trkpt>
      <trkpt lat="46.76106" lon="6.15768">
        <ele>1048</ele>
        <time>2022-08-10T11:18:04Z</time>
      </trkpt>
      <trkpt lat="46.76164" lon="6.15838">
        <ele>1043</ele>
        <time>2022-08-10T11:18:22Z</time>
      </trkpt>
      <trkpt lat="46.76186" lon="6.15904">
        <ele>1041</ele>
        <time>2022-08-10T11:18:34Z</time>
      </trkpt>
      <trkpt lat="46.76265" lon="6.15913">
        <ele>1039</ele>
        <time>2022-08-10T11:18:52Z</time>
      </trkpt>
      <trkpt lat="46.76285" lon="6.15951">
        <ele>1041</ele>
        <time>2022-08-10T11:19:00Z</time>
      </trkpt>
      <trkpt lat="46.76294" lon="6.16005">
        <ele>1043</ele>
        <time>2022-08-10T11:19:09Z</time>
      </trkpt>
      <trkpt lat="46.76267" lon="6.16108">
        <ele>1050</ele>
        <time>2022-08-10T11:19:26Z</time>
      </trkpt>
      <trkpt lat="46.76321" lon="6.16118">
        <ele>1050.1</ele>
      </trkpt>
      <trkpt lat="46.76369" lon="6.16112">
        <ele>1052</ele>
        <time>2022-08-10T11:19:50Z</time>
      </trkpt>
      <trkpt lat="46.76376" lon="6.16055">
        <ele>1048.5</ele>
      </trkpt>
      <trkpt lat="46.76424" lon="6.15925">
        <ele>1041.5</ele>
        <time>2022-08-10T11:20:12Z</time>
      </trkpt>
      <trkpt lat="46.76453" lon="6.15874">
        <ele>1038.1</ele>
        <time>2022-08-10T11:20:25Z</time>
      </trkpt>
      <trkpt lat="46.76485" lon="6.1586">
        <ele>1036.4</ele>
        <time>2022-08-10T11:20:29Z</time>
      </trkpt>
      <trkpt lat="46.76532" lon="6.15908">
        <ele>1036.7</ele>
      </trkpt>
      <trkpt lat="46.76563" lon="6.15953">
        <ele>1035.7</ele>
        <time>2022-08-10T11:20:47Z</time>
      </trkpt>
      <trkpt lat="46.7657" lon="6.15993">
        <ele>1034.2</ele>
        <time>2022-08-10T11:21:07Z</time>
      </trkpt>
      <trkpt lat="46.76556" lon="6.16023">
        <ele>1033.6</ele>
        <time>2022-08-10T11:21:22Z</time>
      </trkpt>
      <trkpt lat="46.76524" lon="6.16059">
        <ele>1036.8</ele>
        <time>2022-08-10T11:21:32Z</time>
      </trkpt>
      <trkpt lat="46.76511" lon="6.16092">
        <ele>1038.8</ele>
        <time>2022-08-10T11:21:39Z</time>
      </trkpt>
      <trkpt lat="46.76513" lon="6.16127">
        <ele>1036.4</ele>
        <time>2022-08-10T11:21:57Z</time>
      </trkpt>
      <trkpt lat="46.7653" lon="6.16157">
        <ele>1029.4</ele>
        <time>2022-08-10T11:22:13Z</time>
      </trkpt>
      <trkpt lat="46.76549" lon="6.1617">
        <ele>1028.7</ele>
        <time>2022-08-10T11:22:32Z</time>
      </trkpt>
      <trkpt lat="46.76569" lon="6.16166">
        <ele>1027.5</ele>
        <time>2022-08-10T11:22:41Z</time>
      </trkpt>
      <trkpt lat="46.7671" lon="6.16072">
        <ele>1018.2</ele>
        <time>2022-08-10T11:22:55Z</time>
      </trkpt>
      <trkpt lat="46.76784" lon="6.16011">
        <ele>1012.5</ele>
        <time>2022-08-10T11:23:21Z</time>
      </trkpt>
      <trkpt lat="46.76828" lon="6.15958">
        <ele>1007.6</ele>
      </trkpt>
      <trkpt lat="46.76872" lon="6.15931">
        <ele>1004.1</ele>
      </trkpt>
      <trkpt lat="46.76865" lon="6.15855">
        <ele>1000.6</ele>
      </trkpt>
      <trkpt lat="46.76859" lon="6.15803">
        <ele>998.8</ele>
      </trkpt>
      <trkpt lat="46.7686" lon="6.15724">
        <ele>996.1</ele>
      </trkpt>
      <trkpt lat="46.76878" lon="6.15679">
        <ele>993.8</ele>
      </trkpt>
      <trkpt lat="46.76926" lon="6.15615">
        <ele>989.6</ele>
      </trkpt>
      <trkpt lat="46.76941" lon="6.15594">
        <ele>987.4</ele>
      </trkpt>
      <trkpt lat="46.76952" lon="6.15554">
        <ele>985.8</ele>
      </trkpt>
      <trkpt lat="46.76951" lon="6.15503">
        <ele>984.1</ele>
      </trkpt>
      <trkpt lat="46.76947" lon="6.15438">
        <ele>982.1</ele>
      </trkpt>
      <trkpt lat="46.76944" lon="6.15402">
        <ele>983</ele>
      </trkpt>
      <trkpt lat="46.76938" lon="6.15352">
        <ele>981.9</ele>
      </trkpt>
      <trkpt lat="46.7694" lon="6.15256">
        <ele>978.6</ele>
      </trkpt>
      <trkpt lat="46.76938" lon="6.15174">
        <ele>974.3</ele>
      </trkpt>
      <trkpt lat="46.76916" lon="6.15128">
        <ele>972.6</ele>
      </trkpt>
      <trkpt lat="46.76887" lon="6.15057">
        <ele>973.1</ele>
      </trkpt>
      <trkpt lat="46.76884" lon="6.15007">
        <ele>971.3</ele>
      </trkpt>
      <trkpt lat="46.76957" lon="6.14891">
        <ele>962.6</ele>
      </trkpt>
      <trkpt lat="46.76997" lon="6.14859">
        <ele>959.1</ele>
      </trkpt>
      <trkpt lat="46.77005" lon="6.14799">
        <ele>958.1</ele>
      </trkpt>
      <trkpt lat="46.77027" lon="6.14761">
        <ele>958</ele>
      </trkpt>
      <trkpt lat="46.7704" lon="6.14742">
        <ele>958.2</ele>
      </trkpt>
      <trkpt lat="46.77054" lon="6.14716">
        <ele>957.5</ele>
      </trkpt>
      <trkpt lat="46.77067" lon="6.1464">
        <ele>952.7</ele>
      </trkpt>
      <trkpt lat="46.77089" lon="6.14585">
        <ele>949.9</ele>
      </trkpt>
      <trkpt lat="46.77116" lon="6.14542">
        <ele>946.6</ele>
      </trkpt>
      <trkpt lat="46.77165" lon="6.14524">
        <ele>941.9</ele>
      </trkpt>
      <trkpt lat="46.77233" lon="6.14519">
        <ele>936.9</ele>
      </trkpt>
      <trkpt lat="46.77276" lon="6.14526">
        <ele>934.1</ele>
      </trkpt>
      <trkpt lat="46.77308" lon="6.14542">
        <ele>932.9</ele>
      </trkpt>
      <trkpt lat="46.77332" lon="6.14547">
        <ele>931.8</ele>
      </trkpt>
      <trkpt lat="46.77369" lon="6.14539">
        <ele>930.4</ele>
      </trkpt>
      <trkpt lat="46.77388" lon="6.14537">
        <ele>928.8</ele>
      </trkpt>
      <trkpt lat="46.77405" lon="6.14545">
        <ele>928.4</ele>
      </trkpt>
      <trkpt lat="46.7743" lon="6.14546">
        <ele>926.4</ele>
      </trkpt>
      <trkpt lat="46.77446" lon="6.1454">
        <ele>924.4</ele>
      </trkpt>
      <trkpt lat="46.7746" lon="6.14525">
        <ele>923.3</ele>
      </trkpt>
      <trkpt lat="46.77472" lon="6.14503">
        <ele>921.2</ele>
      </trkpt>
      <trkpt lat="46.77502" lon="6.14464">
        <ele>918.3</ele>
      </trkpt>
      <trkpt lat="46.77527" lon="6.14452">
        <ele>916.3</ele>
      </trkpt>
      <trkpt lat="46.77556" lon="6.14465">
        <ele>915</ele>
      </trkpt>
      <trkpt lat="46.77584" lon="6.14456">
        <ele>913.5</ele>
      </trkpt>
      <trkpt lat="46.77625" lon="6.14435">
        <ele>908.8</ele>
      </trkpt>
      <trkpt lat="46.7767" lon="6.14406">
        <ele>905.8</ele>
      </trkpt>
      <trkpt lat="46.77683" lon="6.144">
        <ele>905</ele>
      </trkpt>
      <trkpt lat="46.77736" lon="6.14349">
        <ele>902.4</ele>
      </trkpt>
      <trkpt lat="46.77754" lon="6.1434">
        <ele>902.1</ele>
      </trkpt>
      <trkpt lat="46.77799" lon="6.1436">
        <ele>899.7</ele>
      </trkpt>
      <trkpt lat="46.77834" lon="6.14394">
        <ele>895</ele>
      </trkpt>
      <trkpt lat="46.77874" lon="6.14413">
        <ele>893.9</ele>
      </trkpt>
      <trkpt lat="46.7792" lon="6.14417">
        <ele>893.9</ele>
      </trkpt>
      <trkpt lat="46.77947" lon="6.14427">
        <ele>893.3</ele>
      </trkpt>
      <trkpt lat="46.78071" lon="6.14303">
        <ele>887</ele>
      </trkpt>
      <trkpt lat="46.78078" lon="6.14451">
        <ele>892.9</ele>
      </trkpt>
      <trkpt lat="46.78061" lon="6.14513">
        <ele>894.4</ele>
      </trkpt>
      <trkpt lat="46.78054" lon="6.14556">
        <ele>896.1</ele>
      </trkpt>
      <trkpt lat="46.78071" lon="6.14638">
        <ele>899</ele>
      </trkpt>
      <trkpt lat="46.78076" lon="6.14689">
        <ele>902.6</ele>
      </trkpt>
      <trkpt lat="46.78103" lon="6.14765">
        <ele>908.9</ele>
      </trkpt>
      <trkpt lat="46.78137" lon="6.1482">
        <ele>912</ele>
      </trkpt>
      <trkpt lat="46.78181" lon="6.1487">
        <ele>911</ele>
      </trkpt>
      <trkpt lat="46.78212" lon="6.14925">
        <ele>912.6</ele>
      </trkpt>
      <trkpt lat="46.78242" lon="6.14998">
        <ele>913</ele>
      </trkpt>
      <trkpt lat="46.78237" lon="6.15076">
        <ele>916.1</ele>
      </trkpt>
      <trkpt lat="46.78237" lon="6.15125">
        <ele>917.5</ele>
      </trkpt>
      <trkpt lat="46.78221" lon="6.15192">
        <ele>922.1</ele>
      </trkpt>
      <trkpt lat="46.782" lon="6.15237">
        <ele>925.8</ele>
      </trkpt>
      <trkpt lat="46.78148" lon="6.15277">
        <ele>929.7</ele>
      </trkpt>
      <trkpt lat="46.78098" lon="6.15314">
        <ele>931.4</ele>
      </trkpt>
      <trkpt lat="46.78056" lon="6.15374">
        <ele>931</ele>
      </trkpt>
      <trkpt lat="46.78025" lon="6.15418">
        <ele>928.3</ele>
      </trkpt>
      <trkpt lat="46.78023" lon="6.15462">
        <ele>928.8</ele>
      </trkpt>
      <trkpt lat="46.78048" lon="6.15528">
        <ele>937</ele>
        <time>2022-08-10T11:36:15Z</time>
      </trkpt>
      <trkpt lat="46.78089" lon="6.15619">
        <ele>940</ele>
        <time>2022-08-10T11:36:33Z</time>
      </trkpt>
      <trkpt lat="46.78142" lon="6.1564">
        <ele>938</ele>
        <time>2022-08-10T11:36:46Z</time>
      </trkpt>
      <trkpt lat="46.78218" lon="6.15713">
        <ele>939</ele>
        <time>2022-08-10T11:37:07Z</time>
      </trkpt>
      <trkpt lat="46.78256" lon="6.15719">
        <ele>938</ele>
        <time>2022-08-10T11:37:16Z</time>
      </trkpt>
      <trkpt lat="46.7833" lon="6.15653">
        <ele>929</ele>
        <time>2022-08-10T11:37:36Z</time>
      </trkpt>
      <trkpt lat="46.78393" lon="6.1564">
        <ele>925</ele>
        <time>2022-08-10T11:37:51Z</time>
      </trkpt>
      <trkpt lat="46.78437" lon="6.15653">
        <ele>924</ele>
        <time>2022-08-10T11:38:01Z</time>
      </trkpt>
      <trkpt lat="46.78496" lon="6.15642">
        <ele>920</ele>
        <time>2022-08-10T11:38:15Z</time>
      </trkpt>
      <trkpt lat="46.78534" lon="6.15627">
        <ele>917</ele>
        <time>2022-08-10T11:38:24Z</time>
      </trkpt>
      <trkpt lat="46.78581" lon="6.15619">
        <ele>913</ele>
        <time>2022-08-10T11:38:35Z</time>
      </trkpt>
      <trkpt lat="46.78618" lon="6.15666">
        <ele>911</ele>
        <time>2022-08-10T11:38:47Z</time>
      </trkpt>
      <trkpt lat="46.78653" lon="6.15696">
        <ele>910</ele>
        <time>2022-08-10T11:38:56Z</time>
      </trkpt>
      <trkpt lat="46.78735" lon="6.15737">
        <ele>912</ele>
        <time>2022-08-10T11:39:17Z</time>
      </trkpt>
      <trkpt lat="46.78761" lon="6.15804">
        <ele>918</ele>
        <time>2022-08-10T11:39:29Z</time>
      </trkpt>
      <trkpt lat="46.78809" lon="6.1585">
        <ele>921</ele>
        <time>2022-08-10T11:39:42Z</time>
      </trkpt>
      <trkpt lat="46.78848" lon="6.15877">
        <ele>921</ele>
        <time>2022-08-10T11:39:52Z</time>
      </trkpt>
      <trkpt lat="46.78884" lon="6.15916">
        <ele>921</ele>
        <time>2022-08-10T11:40:03Z</time>
      </trkpt>
      <trkpt lat="46.78915" lon="6.15954">
        <ele>922</ele>
        <time>2022-08-10T11:40:12Z</time>
      </trkpt>
      <trkpt lat="46.78953" lon="6.15965">
        <ele>919</ele>
        <time>2022-08-10T11:40:21Z</time>
      </trkpt>
      <trkpt lat="46.78994" lon="6.1593">
        <ele>910</ele>
        <time>2022-08-10T11:40:32Z</time>
      </trkpt>
      <trkpt lat="46.7903" lon="6.15891">
        <ele>903</ele>
        <time>2022-08-10T11:40:43Z</time>
      </trkpt>
      <trkpt lat="46.79047" lon="6.15846">
        <ele>898</ele>
        <time>2022-08-10T11:40:51Z</time>
      </trkpt>
      <trkpt lat="46.79039" lon="6.15797">
        <ele>896</ele>
        <time>2022-08-10T11:40:59Z</time>
      </trkpt>
      <trkpt lat="46.79021" lon="6.1573">
        <ele>893</ele>
        <time>2022-08-10T11:41:11Z</time>
      </trkpt>
      <trkpt lat="46.79036" lon="6.15653">
        <ele>891</ele>
        <time>2022-08-10T11:41:24Z</time>
      </trkpt>
      <trkpt lat="46.79058" lon="6.15582">
        <ele>890</ele>
        <time>2022-08-10T11:41:36Z</time>
      </trkpt>
      <trkpt lat="46.791" lon="6.15528">
        <ele>888</ele>
        <time>2022-08-10T11:41:49Z</time>
      </trkpt>
      <trkpt lat="46.79139" lon="6.15505">
        <ele>890</ele>
        <time>2022-08-10T11:41:59Z</time>
      </trkpt>
      <trkpt lat="46.79176" lon="6.15498">
        <ele>892</ele>
        <time>2022-08-10T11:42:08Z</time>
      </trkpt>
      <trkpt lat="46.79215" lon="6.15472">
        <ele>890</ele>
        <time>2022-08-10T11:42:18Z</time>
      </trkpt>
      <trkpt lat="46.7924" lon="6.15432">
        <ele>890</ele>
        <time>2022-08-10T11:42:26Z</time>
      </trkpt>
      <trkpt lat="46.79318" lon="6.15356">
        <ele>892</ele>
        <time>2022-08-10T11:42:48Z</time>
      </trkpt>
      <trkpt lat="46.79415" lon="6.15382">
        <ele>895</ele>
        <time>2022-08-10T11:43:11Z</time>
      </trkpt>
      <trkpt lat="46.79471" lon="6.154">
        <ele>893</ele>
        <time>2022-08-10T11:43:25Z</time>
      </trkpt>
      <trkpt lat="46.79527" lon="6.15443">
        <ele>889</ele>
        <time>2022-08-10T11:43:39Z</time>
      </trkpt>
      <trkpt lat="46.79576" lon="6.15468">
        <ele>887</ele>
        <time>2022-08-10T11:43:51Z</time>
      </trkpt>
      <trkpt lat="46.79621" lon="6.15516">
        <ele>881</ele>
        <time>2022-08-10T11:44:04Z</time>
      </trkpt>
      <trkpt lat="46.79665" lon="6.15533">
        <ele>876</ele>
        <time>2022-08-10T11:44:15Z</time>
      </trkpt>
      <trkpt lat="46.79724" lon="6.15528">
        <ele>876</ele>
        <time>2022-08-10T11:44:29Z</time>
      </trkpt>
      <trkpt lat="46.7976" lon="6.1556">
        <ele>878</ele>
        <time>2022-08-10T11:44:39Z</time>
      </trkpt>
      <trkpt lat="46.79798" lon="6.156">
        <ele>883</ele>
        <time>2022-08-10T11:44:50Z</time>
      </trkpt>
      <trkpt lat="46.79851" lon="6.15639">
        <ele>886</ele>
        <time>2022-08-10T11:45:04Z</time>
      </trkpt>
      <trkpt lat="46.79897" lon="6.15665">
        <ele>884</ele>
        <time>2022-08-10T11:45:15Z</time>
      </trkpt>
      <trkpt lat="46.79933" lon="6.15659">
        <ele>882</ele>
        <time>2022-08-10T11:45:24Z</time>
      </trkpt>
      <trkpt lat="46.79982" lon="6.15641">
        <ele>877</ele>
        <time>2022-08-10T11:45:35Z</time>
      </trkpt>
      <trkpt lat="46.80022" lon="6.15642">
        <ele>872</ele>
        <time>2022-08-10T11:45:45Z</time>
      </trkpt>
      <trkpt lat="46.80066" lon="6.15654">
        <ele>865</ele>
        <time>2022-08-10T11:45:55Z</time>
      </trkpt>
      <trkpt lat="46.80133" lon="6.15689">
        <ele>861</ele>
        <time>2022-08-10T11:46:12Z</time>
      </trkpt>
      <trkpt lat="46.80207" lon="6.15772">
        <ele>859</ele>
        <time>2022-08-10T11:46:34Z</time>
      </trkpt>
      <trkpt lat="46.80248" lon="6.15814">
        <ele>857</ele>
        <time>2022-08-10T11:46:45Z</time>
      </trkpt>
      <trkpt lat="46.80311" lon="6.15804">
        <ele>853</ele>
        <time>2022-08-10T11:47:00Z</time>
      </trkpt>
      <trkpt lat="46.8034" lon="6.15811">
        <ele>852</ele>
        <time>2022-08-10T11:47:07Z</time>
      </trkpt>
      <trkpt lat="46.80405" lon="6.1586">
        <ele>848</ele>
        <time>2022-08-10T11:47:24Z</time>
      </trkpt>
      <trkpt lat="46.80424" lon="6.15963">
        <ele>852</ele>
        <time>2022-08-10T11:47:41Z</time>
      </trkpt>
      <trkpt lat="46.80389" lon="6.16069">
        <ele>859</ele>
        <time>2022-08-10T11:48:00Z</time>
      </trkpt>
      <trkpt lat="46.80344" lon="6.1619">
        <ele>869</ele>
        <time>2022-08-10T11:48:22Z</time>
      </trkpt>
      <trkpt lat="46.80325" lon="6.16205">
        <ele>872</ele>
        <time>2022-08-10T11:48:27Z</time>
      </trkpt>
      <trkpt lat="46.80302" lon="6.16213">
        <ele>876</ele>
        <time>2022-08-10T11:48:32Z</time>
      </trkpt>
      <trkpt lat="46.80287" lon="6.16213">
        <ele>878</ele>
        <time>2022-08-10T11:48:36Z</time>
      </trkpt>
      <trkpt lat="46.80277" lon="6.16223">
        <ele>880</ele>
        <time>2022-08-10T11:48:39Z</time>
      </trkpt>
      <trkpt lat="46.80268" lon="6.16268">
        <ele>882</ele>
        <time>2022-08-10T11:48:46Z</time>
      </trkpt>
      <trkpt lat="46.80265" lon="6.16337">
        <ele>879</ele>
        <time>2022-08-10T11:48:57Z</time>
      </trkpt>
      <trkpt lat="46.80229" lon="6.16562">
        <ele>876</ele>
        <time>2022-08-10T11:49:34Z</time>
      </trkpt>
      <trkpt lat="46.80206" lon="6.16636">
        <ele>877</ele>
        <time>2022-08-10T11:49:47Z</time>
      </trkpt>
      <trkpt lat="46.80184" lon="6.16684">
        <ele>877</ele>
        <time>2022-08-10T11:49:56Z</time>
      </trkpt>
      <trkpt lat="46.80173" lon="6.16759">
        <ele>875</ele>
        <time>2022-08-10T11:50:09Z</time>
      </trkpt>
      <trkpt lat="46.80171" lon="6.16834">
        <ele>876</ele>
        <time>2022-08-10T11:50:21Z</time>
      </trkpt>
      <trkpt lat="46.80183" lon="6.16997">
        <ele>882</ele>
        <time>2022-08-10T11:50:47Z</time>
      </trkpt>
      <trkpt lat="46.80181" lon="6.17054">
        <ele>885</ele>
        <time>2022-08-10T11:50:56Z</time>
      </trkpt>
      <trkpt lat="46.80153" lon="6.17178">
        <ele>884</ele>
        <time>2022-08-10T11:51:17Z</time>
      </trkpt>
      <trkpt lat="46.80151" lon="6.17217">
        <ele>882</ele>
        <time>2022-08-10T11:51:23Z</time>
      </trkpt>
      <trkpt lat="46.80121" lon="6.17284">
        <ele>883</ele>
        <time>2022-08-10T11:51:36Z</time>
      </trkpt>
      <trkpt lat="46.80112" lon="6.17327">
        <ele>883</ele>
        <time>2022-08-10T11:51:43Z</time>
      </trkpt>
      <trkpt lat="46.80102" lon="6.17395">
        <ele>880</ele>
        <time>2022-08-10T11:51:54Z</time>
      </trkpt>
      <trkpt lat="46.80118" lon="6.17459">
        <ele>876</ele>
        <time>2022-08-10T11:52:05Z</time>
      </trkpt>
      <trkpt lat="46.80135" lon="6.17549">
        <ele>869</ele>
        <time>2022-08-10T11:52:20Z</time>
      </trkpt>
      <trkpt lat="46.80182" lon="6.17625">
        <ele>861</ele>
        <time>2022-08-10T11:52:36Z</time>
      </trkpt>
      <trkpt lat="46.80197" lon="6.1772">
        <ele>856</ele>
        <time>2022-08-10T11:52:52Z</time>
      </trkpt>
      <trkpt lat="46.80237" lon="6.17787">
        <ele>852</ele>
        <time>2022-08-10T11:53:06Z</time>
      </trkpt>
      <trkpt lat="46.80265" lon="6.17842">
        <ele>851</ele>
        <time>2022-08-10T11:53:17Z</time>
      </trkpt>
      <trkpt lat="46.80339" lon="6.18026">
        <ele>855</ele>
        <time>2022-08-10T11:53:51Z</time>
      </trkpt>
      <trkpt lat="46.80362" lon="6.18056">
        <ele>855</ele>
        <time>2022-08-10T11:53:59Z</time>
      </trkpt>
      <trkpt lat="46.80389" lon="6.18076">
        <ele>856</ele>
        <time>2022-08-10T11:54:06Z</time>
      </trkpt>
      <trkpt lat="46.80464" lon="6.18073">
        <ele>855</ele>
        <time>2022-08-10T11:54:23Z</time>
      </trkpt>
      <trkpt lat="46.80515" lon="6.18094">
        <ele>855</ele>
        <time>2022-08-10T11:54:36Z</time>
      </trkpt>
      <trkpt lat="46.80549" lon="6.18123">
        <ele>856</ele>
        <time>2022-08-10T11:54:45Z</time>
      </trkpt>
      <trkpt lat="46.8059" lon="6.1812">
        <ele>856</ele>
        <time>2022-08-10T11:54:54Z</time>
      </trkpt>
      <trkpt lat="46.80638" lon="6.18098">
        <ele>855</ele>
        <time>2022-08-10T11:55:06Z</time>
      </trkpt>
      <trkpt lat="46.80675" lon="6.18096">
        <ele>855</ele>
        <time>2022-08-10T11:55:15Z</time>
      </trkpt>
      <trkpt lat="46.807" lon="6.18159">
        <ele>853</ele>
        <time>2022-08-10T11:55:26Z</time>
      </trkpt>
      <trkpt lat="46.8075" lon="6.18348">
        <ele>855</ele>
        <time>2022-08-10T11:55:59Z</time>
      </trkpt>
      <trkpt lat="46.80825" lon="6.1842">
        <ele>851</ele>
        <time>2022-08-10T11:56:20Z</time>
      </trkpt>
      <trkpt lat="46.80868" lon="6.18476">
        <ele>849</ele>
        <time>2022-08-10T11:56:33Z</time>
      </trkpt>
      <trkpt lat="46.809" lon="6.18545">
        <ele>850</ele>
        <time>2022-08-10T11:56:46Z</time>
      </trkpt>
      <trkpt lat="46.80916" lon="6.18604">
        <ele>850</ele>
        <time>2022-08-10T11:56:57Z</time>
      </trkpt>
      <trkpt lat="46.80941" lon="6.18639">
        <ele>850</ele>
        <time>2022-08-10T11:57:05Z</time>
      </trkpt>
      <trkpt lat="46.80978" lon="6.18669">
        <ele>851</ele>
        <time>2022-08-10T11:57:15Z</time>
      </trkpt>
      <trkpt lat="46.81013" lon="6.18727">
        <ele>853</ele>
        <time>2022-08-10T11:57:27Z</time>
      </trkpt>
      <trkpt lat="46.81136" lon="6.18999">
        <ele>857</ele>
        <time>2022-08-10T11:58:19Z</time>
      </trkpt>
      <trkpt lat="46.81218" lon="6.19153">
        <ele>857</ele>
        <time>2022-08-10T11:58:50Z</time>
      </trkpt>
      <trkpt lat="46.81248" lon="6.19194">
        <ele>859</ele>
        <time>2022-08-10T11:59:00Z</time>
      </trkpt>
      <trkpt lat="46.81322" lon="6.19324">
        <ele>864</ele>
        <time>2022-08-10T11:59:27Z</time>
      </trkpt>
      <trkpt lat="46.8139" lon="6.19398">
        <ele>876</ele>
        <time>2022-08-10T11:59:47Z</time>
      </trkpt>
      <trkpt lat="46.81428" lon="6.19427">
        <ele>882</ele>
        <time>2022-08-10T11:59:57Z</time>
      </trkpt>
      <trkpt lat="46.81502" lon="6.19394">
        <ele>893</ele>
        <time>2022-08-10T12:00:15Z</time>
      </trkpt>
      <trkpt lat="46.81573" lon="6.19373">
        <ele>896</ele>
        <time>2022-08-10T12:00:32Z</time>
      </trkpt>
      <trkpt lat="46.81609" lon="6.19382">
        <ele>896</ele>
        <time>2022-08-10T12:00:40Z</time>
      </trkpt>
      <trkpt lat="46.81674" lon="6.19416">
        <ele>894</ele>
        <time>2022-08-10T12:00:56Z</time>
      </trkpt>
      <trkpt lat="46.81737" lon="6.19465">
        <ele>898</ele>
        <time>2022-08-10T12:01:13Z</time>
      </trkpt>
      <trkpt lat="46.81773" lon="6.19509">
        <ele>900</ele>
        <time>2022-08-10T12:01:24Z</time>
      </trkpt>
      <trkpt lat="46.81795" lon="6.19633">
        <ele>900</ele>
        <time>2022-08-10T12:01:44Z</time>
      </trkpt>
      <trkpt lat="46.81814" lon="6.19816">
        <ele>902</ele>
        <time>2022-08-10T12:02:14Z</time>
      </trkpt>
      <trkpt lat="46.8183" lon="6.19943">
        <ele>908</ele>
        <time>2022-08-10T12:02:35Z</time>
      </trkpt>
      <trkpt lat="46.81878" lon="6.20082">
        <ele>920</ele>
        <time>2022-08-10T12:02:59Z</time>
      </trkpt>
      <trkpt lat="46.81992" lon="6.20187">
        <ele>928</ele>
        <time>2022-08-10T12:03:31Z</time>
      </trkpt>
      <trkpt lat="46.82166" lon="6.20328">
        <ele>931</ele>
        <time>2022-08-10T12:04:17Z</time>
      </trkpt>
      <trkpt lat="46.82185" lon="6.20367">
        <ele>935</ele>
        <time>2022-08-10T12:04:25Z</time>
      </trkpt>
      <trkpt lat="46.82222" lon="6.2049">
        <ele>944</ele>
        <time>2022-08-10T12:04:47Z</time>
      </trkpt>
      <trkpt lat="46.8226" lon="6.20581">
        <ele>949</ele>
        <time>2022-08-10T12:05:04Z</time>
      </trkpt>
      <trkpt lat="46.82323" lon="6.20672">
        <ele>950</ele>
        <time>2022-08-10T12:05:24Z</time>
      </trkpt>
      <trkpt lat="46.82357" lon="6.20728">
        <ele>953</ele>
        <time>2022-08-10T12:05:36Z</time>
      </trkpt>
      <trkpt lat="46.82702" lon="6.21098">
        <ele>985</ele>
        <time>2022-08-10T12:07:16Z</time>
      </trkpt>
      <trkpt lat="46.82775" lon="6.21131">
        <ele>986</ele>
        <time>2022-08-10T12:07:34Z</time>
      </trkpt>
      <trkpt lat="46.82821" lon="6.2117">
        <ele>989</ele>
        <time>2022-08-10T12:07:46Z</time>
      </trkpt>
      <trkpt lat="46.82864" lon="6.21232">
        <ele>994</ele>
        <time>2022-08-10T12:08:01Z</time>
      </trkpt>
      <trkpt lat="46.82882" lon="6.21313">
        <ele>1002</ele>
        <time>2022-08-10T12:08:14Z</time>
      </trkpt>
      <trkpt lat="46.82902" lon="6.21352">
        <ele>1005</ele>
        <time>2022-08-10T12:08:22Z</time>
      </trkpt>
      <trkpt lat="46.82994" lon="6.21421">
        <ele>1003</ele>
        <time>2022-08-10T12:08:46Z</time>
      </trkpt>
      <trkpt lat="46.83021" lon="6.21413">
        <ele>996</ele>
        <time>2022-08-10T12:08:52Z</time>
      </trkpt>
      <trkpt lat="46.83069" lon="6.21428">
        <ele>985</ele>
        <time>2022-08-10T12:09:04Z</time>
      </trkpt>
      <trkpt lat="46.83137" lon="6.21434">
        <ele>969</ele>
        <time>2022-08-10T12:09:20Z</time>
      </trkpt>
      <trkpt lat="46.83236" lon="6.21428">
        <ele>944</ele>
        <time>2022-08-10T12:09:43Z</time>
      </trkpt>
      <trkpt lat="46.8331" lon="6.2147">
        <ele>933</ele>
        <time>2022-08-10T12:10:02Z</time>
      </trkpt>
      <trkpt lat="46.83369" lon="6.21495">
        <ele>922</ele>
        <time>2022-08-10T12:10:16Z</time>
      </trkpt>
      <trkpt lat="46.83434" lon="6.21515">
        <ele>912</ele>
        <time>2022-08-10T12:10:31Z</time>
      </trkpt>
      <trkpt lat="46.83509" lon="6.21524">
        <ele>906</ele>
        <time>2022-08-10T12:10:49Z</time>
      </trkpt>
      <trkpt lat="46.83569" lon="6.21525">
        <ele>898</ele>
        <time>2022-08-10T12:11:03Z</time>
      </trkpt>
      <trkpt lat="46.83621" lon="6.21489">
        <ele>884</ele>
        <time>2022-08-10T12:11:16Z</time>
      </trkpt>
      <trkpt lat="46.83669" lon="6.21489">
        <ele>874</ele>
        <time>2022-08-10T12:11:28Z</time>
      </trkpt>
      <trkpt lat="46.83712" lon="6.21504">
        <ele>867</ele>
        <time>2022-08-10T12:11:38Z</time>
      </trkpt>
      <trkpt lat="46.83768" lon="6.21586">
        <ele>868</ele>
        <time>2022-08-10T12:11:56Z</time>
      </trkpt>
      <trkpt lat="46.83838" lon="6.21663">
        <ele>865</ele>
        <time>2022-08-10T12:12:17Z</time>
      </trkpt>
      <trkpt lat="46.83888" lon="6.21738">
        <ele>862</ele>
        <time>2022-08-10T12:12:34Z</time>
      </trkpt>
      <trkpt lat="46.83941" lon="6.21837">
        <ele>863</ele>
        <time>2022-08-10T12:12:54Z</time>
      </trkpt>
      <trkpt lat="46.84003" lon="6.21974">
        <ele>871</ele>
        <time>2022-08-10T12:13:20Z</time>
      </trkpt>
      <trkpt lat="46.84006" lon="6.22105">
        <ele>883</ele>
        <time>2022-08-10T12:13:41Z</time>
      </trkpt>
      <trkpt lat="46.84059" lon="6.22193">
        <ele>877</ele>
        <time>2022-08-10T12:14:00Z</time>
      </trkpt>
      <trkpt lat="46.8415" lon="6.22309">
        <ele>878</ele>
        <time>2022-08-10T12:14:28Z</time>
      </trkpt>
      <trkpt lat="46.84223" lon="6.22382">
        <ele>882</ele>
        <time>2022-08-10T12:14:48Z</time>
      </trkpt>
      <trkpt lat="46.84289" lon="6.22382">
        <ele>880</ele>
        <time>2022-08-10T12:15:04Z</time>
      </trkpt>
      <trkpt lat="46.84358" lon="6.22376">
        <ele>877</ele>
        <time>2022-08-10T12:15:20Z</time>
      </trkpt>
      <trkpt lat="46.84384" lon="6.22356">
        <ele>875</ele>
        <time>2022-08-10T12:15:27Z</time>
      </trkpt>
      <trkpt lat="46.84431" lon="6.22464">
        <ele>883</ele>
        <time>2022-08-10T12:15:47Z</time>
      </trkpt>
      <trkpt lat="46.84487" lon="6.22545">
        <ele>884</ele>
        <time>2022-08-10T12:16:06Z</time>
      </trkpt>
      <trkpt lat="46.8455" lon="6.22605">
        <ele>883</ele>
        <time>2022-08-10T12:16:23Z</time>
      </trkpt>
      <trkpt lat="46.84556" lon="6.22635">
        <ele>885</ele>
        <time>2022-08-10T12:16:28Z</time>
      </trkpt>
      <trkpt lat="46.84585" lon="6.22631">
        <ele>881</ele>
        <time>2022-08-10T12:16:35Z</time>
      </trkpt>
      <trkpt lat="46.84622" lon="6.22575">
        <ele>875</ele>
        <time>2022-08-10T12:16:48Z</time>
      </trkpt>
      <trkpt lat="46.84647" lon="6.2253">
        <ele>873</ele>
        <time>2022-08-10T12:16:57Z</time>
      </trkpt>
      <trkpt lat="46.84691" lon="6.22496">
        <ele>869</ele>
        <time>2022-08-10T12:17:08Z</time>
      </trkpt>
      <trkpt lat="46.8475" lon="6.22464">
        <ele>864</ele>
        <time>2022-08-10T12:17:23Z</time>
      </trkpt>
      <trkpt lat="46.84792" lon="6.22431">
        <ele>860</ele>
        <time>2022-08-10T12:17:34Z</time>
      </trkpt>
      <trkpt lat="46.84845" lon="6.22408">
        <ele>852</ele>
        <time>2022-08-10T12:17:47Z</time>
      </trkpt>
      <trkpt lat="46.84901" lon="6.22401">
        <ele>843</ele>
        <time>2022-08-10T12:18:00Z</time>
      </trkpt>
      <trkpt lat="46.84913" lon="6.22408">
        <ele>841</ele>
        <time>2022-08-10T12:18:03Z</time>
      </trkpt>
      <trkpt lat="46.84892" lon="6.22436">
        <ele>847</ele>
        <time>2022-08-10T12:18:10Z</time>
      </trkpt>
      <trkpt lat="46.84892" lon="6.22459">
        <ele>848</ele>
        <time>2022-08-10T12:18:14Z</time>
      </trkpt>
      <trkpt lat="46.84923" lon="6.22494">
        <ele>847</ele>
        <time>2022-08-10T12:18:23Z</time>
      </trkpt>
      <trkpt lat="46.84944" lon="6.2253">
        <ele>848</ele>
        <time>2022-08-10T12:18:30Z</time>
      </trkpt>
      <trkpt lat="46.84983" lon="6.22648">
        <ele>850</ele>
        <time>2022-08-10T12:18:51Z</time>
      </trkpt>
      <trkpt lat="46.84989" lon="6.22689">
        <ele>852</ele>
        <time>2022-08-10T12:18:58Z</time>
      </trkpt>
      <trkpt lat="46.84876" lon="6.22938">
        <ele>875</ele>
        <time>2022-08-10T12:19:46Z</time>
      </trkpt>
      <trkpt lat="46.84904" lon="6.23">
        <ele>874</ele>
        <time>2022-08-10T12:19:58Z</time>
      </trkpt>
      <trkpt lat="46.84938" lon="6.23054">
        <ele>870</ele>
        <time>2022-08-10T12:20:09Z</time>
      </trkpt>
      <trkpt lat="46.84967" lon="6.23094">
        <ele>868</ele>
        <time>2022-08-10T12:20:19Z</time>
      </trkpt>
      <trkpt lat="46.85002" lon="6.23127">
        <ele>866</ele>
        <time>2022-08-10T12:20:28Z</time>
      </trkpt>
      <trkpt lat="46.85042" lon="6.23148">
        <ele>865</ele>
        <time>2022-08-10T12:20:38Z</time>
      </trkpt>
      <trkpt lat="46.85064" lon="6.23245">
        <ele>867</ele>
        <time>2022-08-10T12:20:55Z</time>
      </trkpt>
      <trkpt lat="46.85061" lon="6.23318">
        <ele>869</ele>
        <time>2022-08-10T12:21:06Z</time>
      </trkpt>
      <trkpt lat="46.85082" lon="6.23384">
        <ele>870</ele>
        <time>2022-08-10T12:21:18Z</time>
      </trkpt>
      <trkpt lat="46.85106" lon="6.23433">
        <ele>872</ele>
        <time>2022-08-10T12:21:27Z</time>
      </trkpt>
      <trkpt lat="46.85164" lon="6.23491">
        <ele>869</ele>
        <time>2022-08-10T12:21:44Z</time>
      </trkpt>
      <trkpt lat="46.8524" lon="6.23541">
        <ele>874</ele>
        <time>2022-08-10T12:22:03Z</time>
      </trkpt>
      <trkpt lat="46.85278" lon="6.23541">
        <ele>873</ele>
        <time>2022-08-10T12:22:12Z</time>
      </trkpt>
      <trkpt lat="46.85306" lon="6.23566">
        <ele>875</ele>
        <time>2022-08-10T12:22:20Z</time>
      </trkpt>
      <trkpt lat="46.85243" lon="6.23605">
        <ele>879</ele>
        <time>2022-08-10T12:22:36Z</time>
      </trkpt>
      <trkpt lat="46.85217" lon="6.23652">
        <ele>883</ele>
        <time>2022-08-10T12:22:46Z</time>
      </trkpt>
      <trkpt lat="46.85211" lon="6.23695">
        <ele>887</ele>
        <time>2022-08-10T12:22:53Z</time>
      </trkpt>
      <trkpt lat="46.85243" lon="6.2377">
        <ele>891</ele>
        <time>2022-08-10T12:23:07Z</time>
      </trkpt>
      <trkpt lat="46.85275" lon="6.2383">
        <ele>895</ele>
        <time>2022-08-10T12:23:19Z</time>
      </trkpt>
      <trkpt lat="46.85277" lon="6.23991">
        <ele>909</ele>
        <time>2022-08-10T12:23:45Z</time>
      </trkpt>
      <trkpt lat="46.85268" lon="6.24026">
        <ele>912</ele>
        <time>2022-08-10T12:23:50Z</time>
      </trkpt>
      <trkpt lat="46.85277" lon="6.24121">
        <ele>913</ele>
        <time>2022-08-10T12:24:06Z</time>
      </trkpt>
      <trkpt lat="46.8527" lon="6.24183">
        <ele>911</ele>
        <time>2022-08-10T12:24:16Z</time>
      </trkpt>
      <trkpt lat="46.85278" lon="6.24195">
        <ele>908</ele>
        <time>2022-08-10T12:24:19Z</time>
      </trkpt>
      <trkpt lat="46.85296" lon="6.24203">
        <ele>905</ele>
        <time>2022-08-10T12:24:23Z</time>
      </trkpt>
      <trkpt lat="46.8532" lon="6.24208">
        <ele>902</ele>
        <time>2022-08-10T12:24:29Z</time>
      </trkpt>
      <trkpt lat="46.85353" lon="6.24266">
        <ele>892</ele>
        <time>2022-08-10T12:24:41Z</time>
      </trkpt>
      <trkpt lat="46.85379" lon="6.24286">
        <ele>890</ele>
        <time>2022-08-10T12:24:47Z</time>
      </trkpt>
      <trkpt lat="46.85398" lon="6.24294">
        <ele>889</ele>
        <time>2022-08-10T12:24:52Z</time>
      </trkpt>
      <trkpt lat="46.85409" lon="6.24308">
        <ele>889</ele>
        <time>2022-08-10T12:24:56Z</time>
      </trkpt>
      <trkpt lat="46.85405" lon="6.24345">
        <ele>887</ele>
        <time>2022-08-10T12:25:01Z</time>
      </trkpt>
      <trkpt lat="46.85373" lon="6.24343">
        <ele>885</ele>
        <time>2022-08-10T12:25:09Z</time>
      </trkpt>
      <trkpt lat="46.85352" lon="6.24356">
        <ele>884</ele>
        <time>2022-08-10T12:25:14Z</time>
      </trkpt>
      <trkpt lat="46.85343" lon="6.24375">
        <ele>884</ele>
        <time>2022-08-10T12:25:18Z</time>
      </trkpt>
      <trkpt lat="46.85358" lon="6.24411">
        <ele>885</ele>
        <time>2022-08-10T12:25:25Z</time>
      </trkpt>
      <trkpt lat="46.85374" lon="6.24466">
        <ele>884</ele>
        <time>2022-08-10T12:25:34Z</time>
      </trkpt>
      <trkpt lat="46.85427" lon="6.24557">
        <ele>876</ele>
        <time>2022-08-10T12:25:53Z</time>
      </trkpt>
      <trkpt lat="46.85456" lon="6.24593">
        <ele>876</ele>
        <time>2022-08-10T12:26:02Z</time>
      </trkpt>
      <trkpt lat="46.85495" lon="6.24623">
        <ele>875</ele>
        <time>2022-08-10T12:26:13Z</time>
      </trkpt>
      <trkpt lat="46.85517" lon="6.24714">
        <ele>875</ele>
        <time>2022-08-10T12:26:28Z</time>
      </trkpt>
      <trkpt lat="46.85538" lon="6.24776">
        <ele>876</ele>
        <time>2022-08-10T12:26:39Z</time>
      </trkpt>
      <trkpt lat="46.85547" lon="6.24835">
        <ele>879</ele>
        <time>2022-08-10T12:26:49Z</time>
      </trkpt>
      <trkpt lat="46.85567" lon="6.24906">
        <ele>879</ele>
        <time>2022-08-10T12:27:01Z</time>
      </trkpt>
      <trkpt lat="46.856" lon="6.24972">
        <ele>873</ele>
        <time>2022-08-10T12:27:14Z</time>
      </trkpt>
      <trkpt lat="46.85612" lon="6.25011">
        <ele>874</ele>
        <time>2022-08-10T12:27:21Z</time>
      </trkpt>
      <trkpt lat="46.85653" lon="6.2506">
        <ele>872</ele>
        <time>2022-08-10T12:27:33Z</time>
      </trkpt>
      <trkpt lat="46.85696" lon="6.25077">
        <ele>866</ele>
        <time>2022-08-10T12:27:44Z</time>
      </trkpt>
      <trkpt lat="46.85738" lon="6.25064">
        <ele>857</ele>
        <time>2022-08-10T12:27:54Z</time>
      </trkpt>
      <trkpt lat="46.85784" lon="6.25071">
        <ele>857</ele>
        <time>2022-08-10T12:28:04Z</time>
      </trkpt>
      <trkpt lat="46.85867" lon="6.25088">
        <ele>859</ele>
        <time>2022-08-10T12:28:24Z</time>
      </trkpt>
      <trkpt lat="46.85901" lon="6.25103">
        <ele>859</ele>
        <time>2022-08-10T12:28:32Z</time>
      </trkpt>
      <trkpt lat="46.85928" lon="6.25103">
        <ele>858</ele>
        <time>2022-08-10T12:28:39Z</time>
      </trkpt>
      <trkpt lat="46.85997" lon="6.25182">
        <ele>857</ele>
        <time>2022-08-10T12:28:59Z</time>
      </trkpt>
      <trkpt lat="46.86046" lon="6.25234">
        <ele>857</ele>
        <time>2022-08-10T12:29:13Z</time>
      </trkpt>
      <trkpt lat="46.8606" lon="6.25328">
        <ele>872</ele>
        <time>2022-08-10T12:29:29Z</time>
      </trkpt>
      <trkpt lat="46.86091" lon="6.25347">
        <ele>871</ele>
        <time>2022-08-10T12:29:36Z</time>
      </trkpt>
      <trkpt lat="46.86191" lon="6.25375">
        <ele>867</ele>
        <time>2022-08-10T12:30:00Z</time>
      </trkpt>
      <trkpt lat="46.86232" lon="6.25377">
        <ele>865</ele>
        <time>2022-08-10T12:30:10Z</time>
      </trkpt>
      <trkpt lat="46.86286" lon="6.25388">
        <ele>865</ele>
        <time>2022-08-10T12:30:22Z</time>
      </trkpt>
      <trkpt lat="46.86326" lon="6.25399">
        <ele>866</ele>
        <time>2022-08-10T12:30:32Z</time>
      </trkpt>
      <trkpt lat="46.86361" lon="6.25429">
        <ele>868</ele>
        <time>2022-08-10T12:30:41Z</time>
      </trkpt>
      <trkpt lat="46.86411" lon="6.25423">
        <ele>868</ele>
        <time>2022-08-10T12:30:53Z</time>
      </trkpt>
      <trkpt lat="46.86426" lon="6.25448">
        <ele>868</ele>
        <time>2022-08-10T12:30:58Z</time>
      </trkpt>
      <trkpt lat="46.86453" lon="6.2548">
        <ele>866</ele>
        <time>2022-08-10T12:31:07Z</time>
      </trkpt>
      <trkpt lat="46.8648" lon="6.25506">
        <ele>863</ele>
        <time>2022-08-10T12:31:14Z</time>
      </trkpt>
      <trkpt lat="46.86508" lon="6.25459">
        <ele>859</ele>
        <time>2022-08-10T12:31:24Z</time>
      </trkpt>
      <trkpt lat="46.86543" lon="6.25429">
        <ele>853</ele>
        <time>2022-08-10T12:31:34Z</time>
      </trkpt>
      <trkpt lat="46.86541" lon="6.25465">
        <ele>855</ele>
        <time>2022-08-10T12:31:39Z</time>
      </trkpt>
      <trkpt lat="46.86509" lon="6.25538">
        <ele>861</ele>
        <time>2022-08-10T12:31:53Z</time>
      </trkpt>
      <trkpt lat="46.86521" lon="6.25601">
        <ele>863</ele>
        <time>2022-08-10T12:32:04Z</time>
      </trkpt>
      <trkpt lat="46.86603" lon="6.2562">
        <ele>864</ele>
        <time>2022-08-10T12:32:23Z</time>
      </trkpt>
      <trkpt lat="46.86668" lon="6.25629">
        <ele>863</ele>
        <time>2022-08-10T12:32:38Z</time>
      </trkpt>
      <trkpt lat="46.86715" lon="6.25759">
        <ele>876</ele>
        <time>2022-08-10T12:33:02Z</time>
      </trkpt>
      <trkpt lat="46.86742" lon="6.25804">
        <ele>873</ele>
        <time>2022-08-10T12:33:11Z</time>
      </trkpt>
      <trkpt lat="46.86776" lon="6.2589">
        <ele>877</ele>
        <time>2022-08-10T12:33:27Z</time>
      </trkpt>
      <trkpt lat="46.86807" lon="6.25933">
        <ele>876</ele>
        <time>2022-08-10T12:33:37Z</time>
      </trkpt>
      <trkpt lat="46.86807" lon="6.26041">
        <ele>884</ele>
        <time>2022-08-10T12:33:54Z</time>
      </trkpt>
      <trkpt lat="46.86835" lon="6.26109">
        <ele>886</ele>
        <time>2022-08-10T12:34:07Z</time>
      </trkpt>
      <trkpt lat="46.86847" lon="6.26148">
        <ele>887</ele>
        <time>2022-08-10T12:34:14Z</time>
      </trkpt>
      <trkpt lat="46.86822" lon="6.26221">
        <ele>896</ele>
        <time>2022-08-10T12:34:27Z</time>
      </trkpt>
      <trkpt lat="46.86942" lon="6.26354">
        <ele>883</ele>
        <time>2022-08-10T12:35:02Z</time>
      </trkpt>
      <trkpt lat="46.87018" lon="6.26508">
        <ele>881</ele>
        <time>2022-08-10T12:35:32Z</time>
      </trkpt>
      <trkpt lat="46.87089" lon="6.26564">
        <ele>873</ele>
        <time>2022-08-10T12:35:51Z</time>
      </trkpt>
      <trkpt lat="46.87218" lon="6.26646">
        <ele>861</ele>
        <time>2022-08-10T12:36:24Z</time>
      </trkpt>
      <trkpt lat="46.87263" lon="6.26693">
        <ele>857</ele>
        <time>2022-08-10T12:36:37Z</time>
      </trkpt>
      <trkpt lat="46.87294" lon="6.26845">
        <ele>856</ele>
        <time>2022-08-10T12:37:02Z</time>
      </trkpt>
      <trkpt lat="46.87381" lon="6.26912">
        <ele>850</ele>
        <time>2022-08-10T12:37:25Z</time>
      </trkpt>
      <trkpt lat="46.87474" lon="6.26963">
        <ele>844</ele>
        <time>2022-08-10T12:37:48Z</time>
      </trkpt>
      <trkpt lat="46.87492" lon="6.27004">
        <ele>843</ele>
        <time>2022-08-10T12:37:56Z</time>
      </trkpt>
      <trkpt lat="46.8753" lon="6.27047">
        <ele>843</ele>
        <time>2022-08-10T12:38:07Z</time>
      </trkpt>
      <trkpt lat="46.87545" lon="6.27055">
        <ele>842</ele>
        <time>2022-08-10T12:38:11Z</time>
      </trkpt>
      <trkpt lat="46.87662" lon="6.2688">
        <ele>838</ele>
        <time>2022-08-10T12:38:50Z</time>
      </trkpt>
      <trkpt lat="46.87703" lon="6.26905">
        <ele>836</ele>
        <time>2022-08-10T12:39:01Z</time>
      </trkpt>
      <trkpt lat="46.87738" lon="6.27116">
        <ele>834</ele>
        <time>2022-08-10T12:39:35Z</time>
      </trkpt>
      <trkpt lat="46.87752" lon="6.27165">
        <ele>833</ele>
        <time>2022-08-10T12:39:44Z</time>
      </trkpt>
      <trkpt lat="46.87743" lon="6.27266">
        <ele>833</ele>
        <time>2022-08-10T12:40:00Z</time>
      </trkpt>
    </trkseg>
  </trk>
</gpx>